<?xml version="1.0" encoding="UTF-8" standalone="no" ?>
<gpx xmlns="http://www.topografix.com/GPX/1/1" xmlns:xsi="http://www.w3.org/2001/XMLSchema-instance" xsi:schemaLocation="http://www.topografix.com/GPX/1/1 http://www.topografix.com/GPX/1/1/gpx.xsd" version="1.1" creator="VisuGPX - https://www.visugpx.com">
  <metadata>
    <name>rando de la roche des vents 2013</name>
    <desc><![CDATA[parcours 27 kms]]></desc>
  </metadata>
  <trk>
    <name><![CDATA[rando roche des vents 2013]]></name>
    <trkseg>
      <trkpt lat="45.18915" lon="4.63861">
        <ele>480.31591796875</ele>
        <time>2013-03-03T09:15:46Z</time>
      </trkpt>
      <trkpt lat="45.18901" lon="4.63864">
        <ele>478.87390136719</ele>
        <time>2013-03-03T09:15:51Z</time>
      </trkpt>
      <trkpt lat="45.18889" lon="4.63861">
        <ele>476.95129394531</ele>
        <time>2013-03-03T09:15:55Z</time>
      </trkpt>
      <trkpt lat="45.1888" lon="4.63857">
        <ele>477.43188476562</ele>
        <time>2013-03-03T09:15:58Z</time>
      </trkpt>
      <trkpt lat="45.18865" lon="4.6385">
        <ele>478.87390136719</ele>
        <time>2013-03-03T09:16:05Z</time>
      </trkpt>
      <trkpt lat="45.18865" lon="4.6385">
        <ele>478.39318847656</ele>
        <time>2013-03-03T09:16:15Z</time>
      </trkpt>
      <trkpt lat="45.18869" lon="4.63852">
        <ele>476.95129394531</ele>
        <time>2013-03-03T09:24:48Z</time>
      </trkpt>
      <trkpt lat="45.18899" lon="4.63865">
        <ele>478.39318847656</ele>
        <time>2013-03-03T09:24:58Z</time>
      </trkpt>
      <trkpt lat="45.18908" lon="4.63863">
        <ele>478.87390136719</ele>
        <time>2013-03-03T09:25:02Z</time>
      </trkpt>
      <trkpt lat="45.18923" lon="4.63906">
        <ele>479.83508300781</ele>
        <time>2013-03-03T09:25:11Z</time>
      </trkpt>
      <trkpt lat="45.18944" lon="4.63953">
        <ele>477.91247558594</ele>
        <time>2013-03-03T09:25:21Z</time>
      </trkpt>
      <trkpt lat="45.1894" lon="4.64021">
        <ele>473.58666992188</ele>
        <time>2013-03-03T09:25:26Z</time>
      </trkpt>
      <trkpt lat="45.1893" lon="4.64074">
        <ele>470.70263671875</ele>
        <time>2013-03-03T09:25:30Z</time>
      </trkpt>
      <trkpt lat="45.18905" lon="4.64097">
        <ele>468.78002929688</ele>
        <time>2013-03-03T09:25:34Z</time>
      </trkpt>
      <trkpt lat="45.18841" lon="4.64124">
        <ele>467.33813476562</ele>
        <time>2013-03-03T09:25:44Z</time>
      </trkpt>
      <trkpt lat="45.18793" lon="4.64139">
        <ele>465.89611816406</ele>
        <time>2013-03-03T09:25:53Z</time>
      </trkpt>
      <trkpt lat="45.18782" lon="4.64176">
        <ele>463.49279785156</ele>
        <time>2013-03-03T09:26:00Z</time>
      </trkpt>
      <trkpt lat="45.18798" lon="4.64259">
        <ele>457.72497558594</ele>
        <time>2013-03-03T09:26:09Z</time>
      </trkpt>
      <trkpt lat="45.18848" lon="4.644">
        <ele>447.15026855469</ele>
        <time>2013-03-03T09:26:22Z</time>
      </trkpt>
      <trkpt lat="45.18853" lon="4.64437">
        <ele>445.22766113281</ele>
        <time>2013-03-03T09:26:25Z</time>
      </trkpt>
      <trkpt lat="45.18854" lon="4.64485">
        <ele>442.82446289062</ele>
        <time>2013-03-03T09:26:29Z</time>
      </trkpt>
      <trkpt lat="45.18851" lon="4.64525">
        <ele>441.38244628906</ele>
        <time>2013-03-03T09:26:33Z</time>
      </trkpt>
      <trkpt lat="45.18855" lon="4.64543">
        <ele>440.42126464844</ele>
        <time>2013-03-03T09:26:35Z</time>
      </trkpt>
      <trkpt lat="45.18862" lon="4.64567">
        <ele>440.42126464844</ele>
        <time>2013-03-03T09:26:38Z</time>
      </trkpt>
      <trkpt lat="45.1886" lon="4.64591">
        <ele>441.86315917969</ele>
        <time>2013-03-03T09:26:44Z</time>
      </trkpt>
      <trkpt lat="45.18836" lon="4.646">
        <ele>443.30505371094</ele>
        <time>2013-03-03T09:26:56Z</time>
      </trkpt>
      <trkpt lat="45.18813" lon="4.64612">
        <ele>442.82446289062</ele>
        <time>2013-03-03T09:27:07Z</time>
      </trkpt>
      <trkpt lat="45.18802" lon="4.64617">
        <ele>443.30505371094</ele>
        <time>2013-03-03T09:27:15Z</time>
      </trkpt>
      <trkpt lat="45.1878" lon="4.64623">
        <ele>442.82446289062</ele>
        <time>2013-03-03T09:27:25Z</time>
      </trkpt>
      <trkpt lat="45.18743" lon="4.64617">
        <ele>446.18908691406</ele>
        <time>2013-03-03T09:27:39Z</time>
      </trkpt>
      <trkpt lat="45.18697" lon="4.64605">
        <ele>446.66967773438</ele>
        <time>2013-03-03T09:27:54Z</time>
      </trkpt>
      <trkpt lat="45.18637" lon="4.64588">
        <ele>447.63098144531</ele>
        <time>2013-03-03T09:28:11Z</time>
      </trkpt>
      <trkpt lat="45.18582" lon="4.64573">
        <ele>449.5537109375</ele>
        <time>2013-03-03T09:28:28Z</time>
      </trkpt>
      <trkpt lat="45.18533" lon="4.6456">
        <ele>451.95703125</ele>
        <time>2013-03-03T09:28:47Z</time>
      </trkpt>
      <trkpt lat="45.18501" lon="4.64552">
        <ele>454.8408203125</ele>
        <time>2013-03-03T09:29:00Z</time>
      </trkpt>
      <trkpt lat="45.18479" lon="4.64546">
        <ele>456.28295898438</ele>
        <time>2013-03-03T09:29:09Z</time>
      </trkpt>
      <trkpt lat="45.18441" lon="4.64535">
        <ele>458.68615722656</ele>
        <time>2013-03-03T09:29:27Z</time>
      </trkpt>
      <trkpt lat="45.18416" lon="4.64527">
        <ele>460.60876464844</ele>
        <time>2013-03-03T09:29:39Z</time>
      </trkpt>
      <trkpt lat="45.18379" lon="4.64517">
        <ele>465.41552734375</ele>
        <time>2013-03-03T09:29:58Z</time>
      </trkpt>
      <trkpt lat="45.18373" lon="4.64517">
        <ele>465.41552734375</ele>
        <time>2013-03-03T09:30:01Z</time>
      </trkpt>
      <trkpt lat="45.18357" lon="4.64473">
        <ele>468.78002929688</ele>
        <time>2013-03-03T09:30:18Z</time>
      </trkpt>
      <trkpt lat="45.18341" lon="4.64439">
        <ele>471.66394042969</ele>
        <time>2013-03-03T09:30:34Z</time>
      </trkpt>
      <trkpt lat="45.1832" lon="4.64415">
        <ele>473.10607910156</ele>
        <time>2013-03-03T09:30:48Z</time>
      </trkpt>
      <trkpt lat="45.18311" lon="4.64387">
        <ele>474.06726074219</ele>
        <time>2013-03-03T09:30:59Z</time>
      </trkpt>
      <trkpt lat="45.18329" lon="4.64366">
        <ele>476.95129394531</ele>
        <time>2013-03-03T09:31:11Z</time>
      </trkpt>
      <trkpt lat="45.18345" lon="4.64333">
        <ele>478.87390136719</ele>
        <time>2013-03-03T09:31:27Z</time>
      </trkpt>
      <trkpt lat="45.18342" lon="4.64285">
        <ele>480.31591796875</ele>
        <time>2013-03-03T09:31:45Z</time>
      </trkpt>
      <trkpt lat="45.18329" lon="4.6424">
        <ele>480.31591796875</ele>
        <time>2013-03-03T09:32:01Z</time>
      </trkpt>
      <trkpt lat="45.18343" lon="4.6421">
        <ele>479.83508300781</ele>
        <time>2013-03-03T09:32:09Z</time>
      </trkpt>
      <trkpt lat="45.18381" lon="4.64166">
        <ele>479.83508300781</ele>
        <time>2013-03-03T09:32:25Z</time>
      </trkpt>
      <trkpt lat="45.1841" lon="4.64131">
        <ele>481.7578125</ele>
        <time>2013-03-03T09:32:37Z</time>
      </trkpt>
      <trkpt lat="45.18434" lon="4.64103">
        <ele>482.71923828125</ele>
        <time>2013-03-03T09:32:48Z</time>
      </trkpt>
      <trkpt lat="45.18455" lon="4.64075">
        <ele>483.19982910156</ele>
        <time>2013-03-03T09:32:58Z</time>
      </trkpt>
      <trkpt lat="45.18492" lon="4.64011">
        <ele>482.23852539062</ele>
        <time>2013-03-03T09:33:13Z</time>
      </trkpt>
      <trkpt lat="45.18511" lon="4.63992">
        <ele>483.68041992188</ele>
        <time>2013-03-03T09:33:20Z</time>
      </trkpt>
      <trkpt lat="45.18513" lon="4.6399">
        <ele>483.68041992188</ele>
        <time>2013-03-03T09:33:21Z</time>
      </trkpt>
      <trkpt lat="45.18514" lon="4.63968">
        <ele>484.64184570312</ele>
        <time>2013-03-03T09:33:25Z</time>
      </trkpt>
      <trkpt lat="45.1849" lon="4.63911">
        <ele>486.564453125</ele>
        <time>2013-03-03T09:33:40Z</time>
      </trkpt>
      <trkpt lat="45.18469" lon="4.63862">
        <ele>487.52563476562</ele>
        <time>2013-03-03T09:33:54Z</time>
      </trkpt>
      <trkpt lat="45.18452" lon="4.63804">
        <ele>489.44836425781</ele>
        <time>2013-03-03T09:34:12Z</time>
      </trkpt>
      <trkpt lat="45.18435" lon="4.63757">
        <ele>492.81298828125</ele>
        <time>2013-03-03T09:34:29Z</time>
      </trkpt>
      <trkpt lat="45.18435" lon="4.63755">
        <ele>492.81298828125</ele>
        <time>2013-03-03T09:34:30Z</time>
      </trkpt>
      <trkpt lat="45.18425" lon="4.63753">
        <ele>492.33239746094</ele>
        <time>2013-03-03T09:34:34Z</time>
      </trkpt>
      <trkpt lat="45.18387" lon="4.63818">
        <ele>489.92907714844</ele>
        <time>2013-03-03T09:34:47Z</time>
      </trkpt>
      <trkpt lat="45.18379" lon="4.63827">
        <ele>489.44836425781</ele>
        <time>2013-03-03T09:34:49Z</time>
      </trkpt>
      <trkpt lat="45.18364" lon="4.63838">
        <ele>489.44836425781</ele>
        <time>2013-03-03T09:34:53Z</time>
      </trkpt>
      <trkpt lat="45.1832" lon="4.63847">
        <ele>491.85168457031</ele>
        <time>2013-03-03T09:35:06Z</time>
      </trkpt>
      <trkpt lat="45.18292" lon="4.63858">
        <ele>495.21618652344</ele>
        <time>2013-03-03T09:35:21Z</time>
      </trkpt>
      <trkpt lat="45.18283" lon="4.63866">
        <ele>496.177734375</ele>
        <time>2013-03-03T09:35:28Z</time>
      </trkpt>
      <trkpt lat="45.18276" lon="4.63873">
        <ele>496.65832519531</ele>
        <time>2013-03-03T09:35:34Z</time>
      </trkpt>
      <trkpt lat="45.18273" lon="4.63876">
        <ele>497.13891601562</ele>
        <time>2013-03-03T09:35:37Z</time>
      </trkpt>
      <trkpt lat="45.18253" lon="4.63887">
        <ele>500.02294921875</ele>
        <time>2013-03-03T09:35:53Z</time>
      </trkpt>
      <trkpt lat="45.18251" lon="4.63888">
        <ele>500.50354003906</ele>
        <time>2013-03-03T09:36:07Z</time>
      </trkpt>
      <trkpt lat="45.18221" lon="4.63908">
        <ele>501.94555664062</ele>
        <time>2013-03-03T09:36:22Z</time>
      </trkpt>
      <trkpt lat="45.18212" lon="4.63916">
        <ele>506.271484375</ele>
        <time>2013-03-03T09:36:39Z</time>
      </trkpt>
      <trkpt lat="45.18212" lon="4.63916">
        <ele>510.11669921875</ele>
        <time>2013-03-03T09:37:07Z</time>
      </trkpt>
      <trkpt lat="45.18174" lon="4.63964">
        <ele>514.44262695312</ele>
        <time>2013-03-03T09:37:26Z</time>
      </trkpt>
      <trkpt lat="45.18174" lon="4.63964">
        <ele>515.88464355469</ele>
        <time>2013-03-03T09:37:34Z</time>
      </trkpt>
      <trkpt lat="45.18174" lon="4.63964">
        <ele>517.80725097656</ele>
        <time>2013-03-03T09:37:44Z</time>
      </trkpt>
      <trkpt lat="45.18153" lon="4.63983">
        <ele>517.80725097656</ele>
        <time>2013-03-03T09:37:46Z</time>
      </trkpt>
      <trkpt lat="45.18153" lon="4.63983">
        <ele>518.7685546875</ele>
        <time>2013-03-03T09:38:04Z</time>
      </trkpt>
      <trkpt lat="45.18134" lon="4.63999">
        <ele>519.72985839844</ele>
        <time>2013-03-03T09:38:14Z</time>
      </trkpt>
      <trkpt lat="45.18123" lon="4.64007">
        <ele>521.65258789062</ele>
        <time>2013-03-03T09:38:27Z</time>
      </trkpt>
      <trkpt lat="45.18116" lon="4.64014">
        <ele>526.93981933594</ele>
        <time>2013-03-03T09:38:39Z</time>
      </trkpt>
      <trkpt lat="45.18097" lon="4.64038">
        <ele>527.42041015625</ele>
        <time>2013-03-03T09:38:54Z</time>
      </trkpt>
      <trkpt lat="45.18092" lon="4.64045">
        <ele>526.45910644531</ele>
        <time>2013-03-03T09:38:57Z</time>
      </trkpt>
      <trkpt lat="45.18081" lon="4.64074">
        <ele>528.3818359375</ele>
        <time>2013-03-03T09:39:05Z</time>
      </trkpt>
      <trkpt lat="45.18081" lon="4.64077">
        <ele>528.3818359375</ele>
        <time>2013-03-03T09:39:06Z</time>
      </trkpt>
      <trkpt lat="45.18078" lon="4.64102">
        <ele>531.26574707031</ele>
        <time>2013-03-03T09:39:16Z</time>
      </trkpt>
      <trkpt lat="45.18075" lon="4.64122">
        <ele>531.26574707031</ele>
        <time>2013-03-03T09:39:25Z</time>
      </trkpt>
      <trkpt lat="45.18073" lon="4.64134">
        <ele>530.78515625</ele>
        <time>2013-03-03T09:39:30Z</time>
      </trkpt>
      <trkpt lat="45.18068" lon="4.6415">
        <ele>535.59155273438</ele>
        <time>2013-03-03T09:39:41Z</time>
      </trkpt>
      <trkpt lat="45.1804" lon="4.64141">
        <ele>538.47570800781</ele>
        <time>2013-03-03T09:39:54Z</time>
      </trkpt>
      <trkpt lat="45.18018" lon="4.64137">
        <ele>543.28210449219</ele>
        <time>2013-03-03T09:40:11Z</time>
      </trkpt>
      <trkpt lat="45.17995" lon="4.64138">
        <ele>547.12744140625</ele>
        <time>2013-03-03T09:40:30Z</time>
      </trkpt>
      <trkpt lat="45.17995" lon="4.64138">
        <ele>547.12744140625</ele>
        <time>2013-03-03T09:42:02Z</time>
      </trkpt>
      <trkpt lat="45.17994" lon="4.64138">
        <ele>546.64685058594</ele>
        <time>2013-03-03T09:44:08Z</time>
      </trkpt>
      <trkpt lat="45.17995" lon="4.64129">
        <ele>546.64685058594</ele>
        <time>2013-03-03T09:44:13Z</time>
      </trkpt>
      <trkpt lat="45.17995" lon="4.64126">
        <ele>547.60815429688</ele>
        <time>2013-03-03T09:44:20Z</time>
      </trkpt>
      <trkpt lat="45.17999" lon="4.64117">
        <ele>547.60815429688</ele>
        <time>2013-03-03T09:44:27Z</time>
      </trkpt>
      <trkpt lat="45.17999" lon="4.64113">
        <ele>548.5693359375</ele>
        <time>2013-03-03T09:44:29Z</time>
      </trkpt>
      <trkpt lat="45.17993" lon="4.64088">
        <ele>551.45336914062</ele>
        <time>2013-03-03T09:44:43Z</time>
      </trkpt>
      <trkpt lat="45.17993" lon="4.64083">
        <ele>551.93408203125</ele>
        <time>2013-03-03T09:44:46Z</time>
      </trkpt>
      <trkpt lat="45.17982" lon="4.6406">
        <ele>555.29858398438</ele>
        <time>2013-03-03T09:45:04Z</time>
      </trkpt>
      <trkpt lat="45.17978" lon="4.64025">
        <ele>557.22143554688</ele>
        <time>2013-03-03T09:45:26Z</time>
      </trkpt>
      <trkpt lat="45.17977" lon="4.64021">
        <ele>557.7021484375</ele>
        <time>2013-03-03T09:45:30Z</time>
      </trkpt>
      <trkpt lat="45.17977" lon="4.64005">
        <ele>559.62475585938</ele>
        <time>2013-03-03T09:45:40Z</time>
      </trkpt>
      <trkpt lat="45.17976" lon="4.64002">
        <ele>559.62475585938</ele>
        <time>2013-03-03T09:45:42Z</time>
      </trkpt>
      <trkpt lat="45.17973" lon="4.63977">
        <ele>561.54736328125</ele>
        <time>2013-03-03T09:45:56Z</time>
      </trkpt>
      <trkpt lat="45.17971" lon="4.63968">
        <ele>562.50854492188</ele>
        <time>2013-03-03T09:46:01Z</time>
      </trkpt>
      <trkpt lat="45.17967" lon="4.63957">
        <ele>563.46997070312</ele>
        <time>2013-03-03T09:46:08Z</time>
      </trkpt>
      <trkpt lat="45.17963" lon="4.63949">
        <ele>564.43115234375</ele>
        <time>2013-03-03T09:46:14Z</time>
      </trkpt>
      <trkpt lat="45.17961" lon="4.63947">
        <ele>564.91186523438</ele>
        <time>2013-03-03T09:46:16Z</time>
      </trkpt>
      <trkpt lat="45.17959" lon="4.63937">
        <ele>566.35375976562</ele>
        <time>2013-03-03T09:46:22Z</time>
      </trkpt>
      <trkpt lat="45.17951" lon="4.63917">
        <ele>569.71850585938</ele>
        <time>2013-03-03T09:46:36Z</time>
      </trkpt>
      <trkpt lat="45.1794" lon="4.63901">
        <ele>572.12182617188</ele>
        <time>2013-03-03T09:46:51Z</time>
      </trkpt>
      <trkpt lat="45.17935" lon="4.63895">
        <ele>572.6025390625</ele>
        <time>2013-03-03T09:46:56Z</time>
      </trkpt>
      <trkpt lat="45.17921" lon="4.63873">
        <ele>575.96704101562</ele>
        <time>2013-03-03T09:47:13Z</time>
      </trkpt>
      <trkpt lat="45.1791" lon="4.63844">
        <ele>576.44775390625</ele>
        <time>2013-03-03T09:47:31Z</time>
      </trkpt>
      <trkpt lat="45.17905" lon="4.63805">
        <ele>579.33154296875</ele>
        <time>2013-03-03T09:47:48Z</time>
      </trkpt>
      <trkpt lat="45.17903" lon="4.63767">
        <ele>580.77368164062</ele>
        <time>2013-03-03T09:48:03Z</time>
      </trkpt>
      <trkpt lat="45.17896" lon="4.6375">
        <ele>581.73486328125</ele>
        <time>2013-03-03T09:48:13Z</time>
      </trkpt>
      <trkpt lat="45.17896" lon="4.63749">
        <ele>581.73486328125</ele>
        <time>2013-03-03T09:49:49Z</time>
      </trkpt>
      <trkpt lat="45.17896" lon="4.63749">
        <ele>581.73486328125</ele>
        <time>2013-03-03T09:50:01Z</time>
      </trkpt>
      <trkpt lat="45.17893" lon="4.63751">
        <ele>581.73486328125</ele>
        <time>2013-03-03T09:50:07Z</time>
      </trkpt>
      <trkpt lat="45.17879" lon="4.63714">
        <ele>583.1767578125</ele>
        <time>2013-03-03T09:50:23Z</time>
      </trkpt>
      <trkpt lat="45.1786" lon="4.63679">
        <ele>582.6962890625</ele>
        <time>2013-03-03T09:50:35Z</time>
      </trkpt>
      <trkpt lat="45.17831" lon="4.63618">
        <ele>583.65747070312</ele>
        <time>2013-03-03T09:50:49Z</time>
      </trkpt>
      <trkpt lat="45.17806" lon="4.63556">
        <ele>580.77368164062</ele>
        <time>2013-03-03T09:50:59Z</time>
      </trkpt>
      <trkpt lat="45.17764" lon="4.63476">
        <ele>579.81225585938</ele>
        <time>2013-03-03T09:51:11Z</time>
      </trkpt>
      <trkpt lat="45.17738" lon="4.63434">
        <ele>581.73486328125</ele>
        <time>2013-03-03T09:51:21Z</time>
      </trkpt>
      <trkpt lat="45.17713" lon="4.63373">
        <ele>578.85107421875</ele>
        <time>2013-03-03T09:51:36Z</time>
      </trkpt>
      <trkpt lat="45.177" lon="4.63312">
        <ele>576.92846679688</ele>
        <time>2013-03-03T09:51:49Z</time>
      </trkpt>
      <trkpt lat="45.17698" lon="4.63295">
        <ele>576.44775390625</ele>
        <time>2013-03-03T09:51:52Z</time>
      </trkpt>
      <trkpt lat="45.17696" lon="4.6328">
        <ele>575.96704101562</ele>
        <time>2013-03-03T09:51:56Z</time>
      </trkpt>
      <trkpt lat="45.17695" lon="4.63242">
        <ele>575.96704101562</ele>
        <time>2013-03-03T09:52:02Z</time>
      </trkpt>
      <trkpt lat="45.17679" lon="4.63224">
        <ele>575.005859375</ele>
        <time>2013-03-03T09:52:07Z</time>
      </trkpt>
      <trkpt lat="45.17639" lon="4.63178">
        <ele>572.12182617188</ele>
        <time>2013-03-03T09:52:18Z</time>
      </trkpt>
      <trkpt lat="45.17583" lon="4.63121">
        <ele>566.35375976562</ele>
        <time>2013-03-03T09:52:28Z</time>
      </trkpt>
      <trkpt lat="45.17579" lon="4.63117">
        <ele>565.87329101562</ele>
        <time>2013-03-03T09:52:29Z</time>
      </trkpt>
      <trkpt lat="45.17579" lon="4.63117">
        <ele>562.02807617188</ele>
        <time>2013-03-03T09:52:35Z</time>
      </trkpt>
      <trkpt lat="45.17543" lon="4.63043">
        <ele>560.5859375</ele>
        <time>2013-03-03T09:52:44Z</time>
      </trkpt>
      <trkpt lat="45.17539" lon="4.63037">
        <ele>560.5859375</ele>
        <time>2013-03-03T09:52:45Z</time>
      </trkpt>
      <trkpt lat="45.17525" lon="4.62993">
        <ele>557.7021484375</ele>
        <time>2013-03-03T09:52:50Z</time>
      </trkpt>
      <trkpt lat="45.17532" lon="4.62918">
        <ele>554.81787109375</ele>
        <time>2013-03-03T09:52:58Z</time>
      </trkpt>
      <trkpt lat="45.1758" lon="4.62827">
        <ele>548.5693359375</ele>
        <time>2013-03-03T09:53:08Z</time>
      </trkpt>
      <trkpt lat="45.17595" lon="4.62767">
        <ele>544.72424316406</ele>
        <time>2013-03-03T09:53:13Z</time>
      </trkpt>
      <trkpt lat="45.17613" lon="4.62721">
        <ele>543.28210449219</ele>
        <time>2013-03-03T09:53:17Z</time>
      </trkpt>
      <trkpt lat="45.17599" lon="4.62687">
        <ele>543.28210449219</ele>
        <time>2013-03-03T09:53:21Z</time>
      </trkpt>
      <trkpt lat="45.17582" lon="4.62691">
        <ele>542.32092285156</ele>
        <time>2013-03-03T09:53:24Z</time>
      </trkpt>
      <trkpt lat="45.17558" lon="4.627">
        <ele>547.12744140625</ele>
        <time>2013-03-03T09:53:31Z</time>
      </trkpt>
      <trkpt lat="45.17529" lon="4.62686">
        <ele>548.5693359375</ele>
        <time>2013-03-03T09:53:45Z</time>
      </trkpt>
      <trkpt lat="45.17503" lon="4.62665">
        <ele>551.45336914062</ele>
        <time>2013-03-03T09:54:01Z</time>
      </trkpt>
      <trkpt lat="45.17495" lon="4.62659">
        <ele>552.41455078125</ele>
        <time>2013-03-03T09:54:07Z</time>
      </trkpt>
      <trkpt lat="45.17497" lon="4.62655">
        <ele>553.3759765625</ele>
        <time>2013-03-03T09:54:13Z</time>
      </trkpt>
      <trkpt lat="45.17499" lon="4.62632">
        <ele>555.779296875</ele>
        <time>2013-03-03T09:54:25Z</time>
      </trkpt>
      <trkpt lat="45.17501" lon="4.62624">
        <ele>556.26000976562</ele>
        <time>2013-03-03T09:54:30Z</time>
      </trkpt>
      <trkpt lat="45.17521" lon="4.626">
        <ele>557.7021484375</ele>
        <time>2013-03-03T09:54:48Z</time>
      </trkpt>
      <trkpt lat="45.17537" lon="4.62568">
        <ele>560.10522460938</ele>
        <time>2013-03-03T09:55:05Z</time>
      </trkpt>
      <trkpt lat="45.17535" lon="4.62539">
        <ele>561.54736328125</ele>
        <time>2013-03-03T09:55:21Z</time>
      </trkpt>
      <trkpt lat="45.17528" lon="4.62522">
        <ele>561.54736328125</ele>
        <time>2013-03-03T09:55:29Z</time>
      </trkpt>
      <trkpt lat="45.17524" lon="4.62512">
        <ele>561.54736328125</ele>
        <time>2013-03-03T09:55:34Z</time>
      </trkpt>
      <trkpt lat="45.17522" lon="4.62505">
        <ele>561.06665039062</ele>
        <time>2013-03-03T09:55:37Z</time>
      </trkpt>
      <trkpt lat="45.17521" lon="4.62501">
        <ele>561.06665039062</ele>
        <time>2013-03-03T09:55:47Z</time>
      </trkpt>
      <trkpt lat="45.17519" lon="4.62476">
        <ele>561.54736328125</ele>
        <time>2013-03-03T09:55:50Z</time>
      </trkpt>
      <trkpt lat="45.1752" lon="4.62462">
        <ele>564.43115234375</ele>
        <time>2013-03-03T09:55:55Z</time>
      </trkpt>
      <trkpt lat="45.17518" lon="4.6245">
        <ele>565.392578125</ele>
        <time>2013-03-03T09:55:59Z</time>
      </trkpt>
      <trkpt lat="45.17511" lon="4.62439">
        <ele>567.31518554688</ele>
        <time>2013-03-03T09:56:05Z</time>
      </trkpt>
      <trkpt lat="45.17508" lon="4.62435">
        <ele>566.83447265625</ele>
        <time>2013-03-03T09:56:07Z</time>
      </trkpt>
      <trkpt lat="45.17503" lon="4.62429">
        <ele>567.31518554688</ele>
        <time>2013-03-03T09:56:11Z</time>
      </trkpt>
      <trkpt lat="45.17497" lon="4.62419">
        <ele>568.75708007812</ele>
        <time>2013-03-03T09:56:16Z</time>
      </trkpt>
      <trkpt lat="45.17484" lon="4.62388">
        <ele>571.16040039062</ele>
        <time>2013-03-03T09:56:33Z</time>
      </trkpt>
      <trkpt lat="45.17479" lon="4.62376">
        <ele>571.64086914062</ele>
        <time>2013-03-03T09:56:40Z</time>
      </trkpt>
      <trkpt lat="45.17477" lon="4.62367">
        <ele>572.12182617188</ele>
        <time>2013-03-03T09:56:44Z</time>
      </trkpt>
      <trkpt lat="45.17475" lon="4.62361">
        <ele>572.6025390625</ele>
        <time>2013-03-03T09:56:47Z</time>
      </trkpt>
      <trkpt lat="45.17468" lon="4.62336">
        <ele>575.96704101562</ele>
        <time>2013-03-03T09:56:59Z</time>
      </trkpt>
      <trkpt lat="45.17466" lon="4.62326">
        <ele>577.4091796875</ele>
        <time>2013-03-03T09:57:04Z</time>
      </trkpt>
      <trkpt lat="45.17462" lon="4.62315">
        <ele>577.8896484375</ele>
        <time>2013-03-03T09:57:09Z</time>
      </trkpt>
      <trkpt lat="45.17457" lon="4.62296">
        <ele>578.85107421875</ele>
        <time>2013-03-03T09:57:17Z</time>
      </trkpt>
      <trkpt lat="45.17454" lon="4.62284">
        <ele>577.4091796875</ele>
        <time>2013-03-03T09:57:23Z</time>
      </trkpt>
      <trkpt lat="45.17452" lon="4.62273">
        <ele>576.92846679688</ele>
        <time>2013-03-03T09:57:29Z</time>
      </trkpt>
      <trkpt lat="45.17434" lon="4.62263">
        <ele>579.81225585938</ele>
        <time>2013-03-03T09:57:39Z</time>
      </trkpt>
      <trkpt lat="45.1743" lon="4.62256">
        <ele>582.6962890625</ele>
        <time>2013-03-03T09:57:45Z</time>
      </trkpt>
      <trkpt lat="45.17429" lon="4.62249">
        <ele>584.13818359375</ele>
        <time>2013-03-03T09:57:48Z</time>
      </trkpt>
      <trkpt lat="45.1742" lon="4.62237">
        <ele>586.54150390625</ele>
        <time>2013-03-03T09:57:55Z</time>
      </trkpt>
      <trkpt lat="45.17409" lon="4.62234">
        <ele>586.54150390625</ele>
        <time>2013-03-03T09:58:05Z</time>
      </trkpt>
      <trkpt lat="45.17398" lon="4.62234">
        <ele>589.90625</ele>
        <time>2013-03-03T09:58:14Z</time>
      </trkpt>
      <trkpt lat="45.17394" lon="4.62234">
        <ele>590.86743164062</ele>
        <time>2013-03-03T09:58:16Z</time>
      </trkpt>
      <trkpt lat="45.17391" lon="4.62235">
        <ele>591.82885742188</ele>
        <time>2013-03-03T09:58:19Z</time>
      </trkpt>
      <trkpt lat="45.17385" lon="4.62236">
        <ele>592.3095703125</ele>
        <time>2013-03-03T09:58:24Z</time>
      </trkpt>
      <trkpt lat="45.17374" lon="4.6224">
        <ele>594.23217773438</ele>
        <time>2013-03-03T09:58:32Z</time>
      </trkpt>
      <trkpt lat="45.1737" lon="4.62241">
        <ele>597.11596679688</ele>
        <time>2013-03-03T09:58:37Z</time>
      </trkpt>
      <trkpt lat="45.17367" lon="4.62243">
        <ele>597.11596679688</ele>
        <time>2013-03-03T09:58:47Z</time>
      </trkpt>
      <trkpt lat="45.17366" lon="4.62243">
        <ele>596.63549804688</ele>
        <time>2013-03-03T10:01:37Z</time>
      </trkpt>
      <trkpt lat="45.17367" lon="4.62235">
        <ele>596.63549804688</ele>
        <time>2013-03-03T10:01:41Z</time>
      </trkpt>
      <trkpt lat="45.17372" lon="4.62213">
        <ele>597.11596679688</ele>
        <time>2013-03-03T10:01:50Z</time>
      </trkpt>
      <trkpt lat="45.17376" lon="4.6217">
        <ele>594.23217773438</ele>
        <time>2013-03-03T10:02:00Z</time>
      </trkpt>
      <trkpt lat="45.17371" lon="4.62134">
        <ele>598.55786132812</ele>
        <time>2013-03-03T10:02:10Z</time>
      </trkpt>
      <trkpt lat="45.17369" lon="4.6212">
        <ele>598.07739257812</ele>
        <time>2013-03-03T10:02:14Z</time>
      </trkpt>
      <trkpt lat="45.17378" lon="4.62113">
        <ele>598.55786132812</ele>
        <time>2013-03-03T10:02:18Z</time>
      </trkpt>
      <trkpt lat="45.17386" lon="4.62112">
        <ele>603.84521484375</ele>
        <time>2013-03-03T10:02:27Z</time>
      </trkpt>
      <trkpt lat="45.17405" lon="4.62112">
        <ele>606.72924804688</ele>
        <time>2013-03-03T10:02:39Z</time>
      </trkpt>
      <trkpt lat="45.17412" lon="4.62114">
        <ele>608.17138671875</ele>
        <time>2013-03-03T10:02:43Z</time>
      </trkpt>
      <trkpt lat="45.17428" lon="4.62116">
        <ele>611.05517578125</ele>
        <time>2013-03-03T10:02:55Z</time>
      </trkpt>
      <trkpt lat="45.17444" lon="4.62109">
        <ele>611.53588867188</ele>
        <time>2013-03-03T10:03:07Z</time>
      </trkpt>
      <trkpt lat="45.17451" lon="4.62109">
        <ele>611.05517578125</ele>
        <time>2013-03-03T10:03:14Z</time>
      </trkpt>
      <trkpt lat="45.17465" lon="4.62105">
        <ele>611.53588867188</ele>
        <time>2013-03-03T10:03:25Z</time>
      </trkpt>
      <trkpt lat="45.17481" lon="4.62103">
        <ele>613.45849609375</ele>
        <time>2013-03-03T10:03:40Z</time>
      </trkpt>
      <trkpt lat="45.17503" lon="4.62096">
        <ele>614.900390625</ele>
        <time>2013-03-03T10:03:59Z</time>
      </trkpt>
      <trkpt lat="45.17519" lon="4.62092">
        <ele>615.86181640625</ele>
        <time>2013-03-03T10:04:12Z</time>
      </trkpt>
      <trkpt lat="45.17546" lon="4.62087">
        <ele>618.26489257812</ele>
        <time>2013-03-03T10:04:33Z</time>
      </trkpt>
      <trkpt lat="45.17565" lon="4.62083">
        <ele>620.66845703125</ele>
        <time>2013-03-03T10:04:48Z</time>
      </trkpt>
      <trkpt lat="45.17566" lon="4.6208">
        <ele>621.62963867188</ele>
        <time>2013-03-03T10:04:51Z</time>
      </trkpt>
      <trkpt lat="45.17562" lon="4.62078">
        <ele>621.62963867188</ele>
        <time>2013-03-03T10:05:02Z</time>
      </trkpt>
      <trkpt lat="45.17562" lon="4.62079">
        <ele>621.14916992188</ele>
        <time>2013-03-03T10:07:36Z</time>
      </trkpt>
      <trkpt lat="45.17535" lon="4.62075">
        <ele>620.18774414062</ele>
        <time>2013-03-03T10:07:47Z</time>
      </trkpt>
      <trkpt lat="45.17509" lon="4.62073">
        <ele>619.70703125</ele>
        <time>2013-03-03T10:07:53Z</time>
      </trkpt>
      <trkpt lat="45.17452" lon="4.6207">
        <ele>619.22631835938</ele>
        <time>2013-03-03T10:08:05Z</time>
      </trkpt>
      <trkpt lat="45.17429" lon="4.62069">
        <ele>618.74560546875</ele>
        <time>2013-03-03T10:08:14Z</time>
      </trkpt>
      <trkpt lat="45.17429" lon="4.62069">
        <ele>619.22631835938</ele>
        <time>2013-03-03T10:08:18Z</time>
      </trkpt>
      <trkpt lat="45.17418" lon="4.62069">
        <ele>617.3037109375</ele>
        <time>2013-03-03T10:08:22Z</time>
      </trkpt>
      <trkpt lat="45.17409" lon="4.62069">
        <ele>616.82299804688</ele>
        <time>2013-03-03T10:08:24Z</time>
      </trkpt>
      <trkpt lat="45.1739" lon="4.62061">
        <ele>616.34228515625</ele>
        <time>2013-03-03T10:08:28Z</time>
      </trkpt>
      <trkpt lat="45.17376" lon="4.62053">
        <ele>615.38110351562</ele>
        <time>2013-03-03T10:08:31Z</time>
      </trkpt>
      <trkpt lat="45.17339" lon="4.62073">
        <ele>613.45849609375</ele>
        <time>2013-03-03T10:08:37Z</time>
      </trkpt>
      <trkpt lat="45.17334" lon="4.6208">
        <ele>612.97778320312</ele>
        <time>2013-03-03T10:08:38Z</time>
      </trkpt>
      <trkpt lat="45.17301" lon="4.62133">
        <ele>612.0166015625</ele>
        <time>2013-03-03T10:08:48Z</time>
      </trkpt>
      <trkpt lat="45.17284" lon="4.62158">
        <ele>610.57446289062</ele>
        <time>2013-03-03T10:08:55Z</time>
      </trkpt>
      <trkpt lat="45.17251" lon="4.62189">
        <ele>606.24853515625</ele>
        <time>2013-03-03T10:09:04Z</time>
      </trkpt>
      <trkpt lat="45.17247" lon="4.62191">
        <ele>606.24853515625</ele>
        <time>2013-03-03T10:09:11Z</time>
      </trkpt>
      <trkpt lat="45.17222" lon="4.62199">
        <ele>602.8837890625</ele>
        <time>2013-03-03T10:09:17Z</time>
      </trkpt>
      <trkpt lat="45.17216" lon="4.62203">
        <ele>601.92260742188</ele>
        <time>2013-03-03T10:09:18Z</time>
      </trkpt>
      <trkpt lat="45.17151" lon="4.62253">
        <ele>592.3095703125</ele>
        <time>2013-03-03T10:09:27Z</time>
      </trkpt>
      <trkpt lat="45.17127" lon="4.62257">
        <ele>590.86743164062</ele>
        <time>2013-03-03T10:09:31Z</time>
      </trkpt>
      <trkpt lat="45.1711" lon="4.6225">
        <ele>590.86743164062</ele>
        <time>2013-03-03T10:09:34Z</time>
      </trkpt>
      <trkpt lat="45.17096" lon="4.62241">
        <ele>590.86743164062</ele>
        <time>2013-03-03T10:09:37Z</time>
      </trkpt>
      <trkpt lat="45.17054" lon="4.6222">
        <ele>589.90625</ele>
        <time>2013-03-03T10:09:48Z</time>
      </trkpt>
      <trkpt lat="45.17047" lon="4.62219">
        <ele>588.94506835938</ele>
        <time>2013-03-03T10:09:54Z</time>
      </trkpt>
      <trkpt lat="45.17047" lon="4.62219">
        <ele>589.42553710938</ele>
        <time>2013-03-03T10:09:56Z</time>
      </trkpt>
      <trkpt lat="45.17063" lon="4.62223">
        <ele>590.86743164062</ele>
        <time>2013-03-03T10:10:07Z</time>
      </trkpt>
      <trkpt lat="45.17063" lon="4.62223">
        <ele>591.34814453125</ele>
        <time>2013-03-03T10:10:16Z</time>
      </trkpt>
      <trkpt lat="45.17063" lon="4.62223">
        <ele>590.86743164062</ele>
        <time>2013-03-03T10:10:35Z</time>
      </trkpt>
      <trkpt lat="45.17063" lon="4.62223">
        <ele>591.34814453125</ele>
        <time>2013-03-03T10:11:16Z</time>
      </trkpt>
      <trkpt lat="45.17065" lon="4.62223">
        <ele>591.82885742188</ele>
        <time>2013-03-03T10:11:29Z</time>
      </trkpt>
      <trkpt lat="45.17051" lon="4.6222">
        <ele>590.86743164062</ele>
        <time>2013-03-03T10:12:04Z</time>
      </trkpt>
      <trkpt lat="45.17049" lon="4.62219">
        <ele>590.38696289062</ele>
        <time>2013-03-03T10:12:10Z</time>
      </trkpt>
      <trkpt lat="45.17049" lon="4.62219">
        <ele>590.38696289062</ele>
        <time>2013-03-03T10:12:20Z</time>
      </trkpt>
      <trkpt lat="45.17049" lon="4.62219">
        <ele>590.38696289062</ele>
        <time>2013-03-03T10:13:47Z</time>
      </trkpt>
      <trkpt lat="45.17047" lon="4.62219">
        <ele>589.42553710938</ele>
        <time>2013-03-03T10:13:53Z</time>
      </trkpt>
      <trkpt lat="45.17035" lon="4.62221">
        <ele>587.9833984375</ele>
        <time>2013-03-03T10:13:55Z</time>
      </trkpt>
      <trkpt lat="45.17004" lon="4.62227">
        <ele>585.580078125</ele>
        <time>2013-03-03T10:14:01Z</time>
      </trkpt>
      <trkpt lat="45.16928" lon="4.62215">
        <ele>581.73486328125</ele>
        <time>2013-03-03T10:14:12Z</time>
      </trkpt>
      <trkpt lat="45.16905" lon="4.62206">
        <ele>581.25439453125</ele>
        <time>2013-03-03T10:14:19Z</time>
      </trkpt>
      <trkpt lat="45.1689" lon="4.622">
        <ele>580.29296875</ele>
        <time>2013-03-03T10:14:27Z</time>
      </trkpt>
      <trkpt lat="45.16876" lon="4.62193">
        <ele>579.33154296875</ele>
        <time>2013-03-03T10:14:31Z</time>
      </trkpt>
      <trkpt lat="45.16861" lon="4.62192">
        <ele>578.37036132812</ele>
        <time>2013-03-03T10:14:34Z</time>
      </trkpt>
      <trkpt lat="45.16827" lon="4.62158">
        <ele>574.04443359375</ele>
        <time>2013-03-03T10:14:40Z</time>
      </trkpt>
      <trkpt lat="45.16802" lon="4.62124">
        <ele>568.75708007812</ele>
        <time>2013-03-03T10:14:44Z</time>
      </trkpt>
      <trkpt lat="45.16764" lon="4.62112">
        <ele>563.46997070312</ele>
        <time>2013-03-03T10:14:50Z</time>
      </trkpt>
      <trkpt lat="45.16741" lon="4.62119">
        <ele>557.7021484375</ele>
        <time>2013-03-03T10:14:55Z</time>
      </trkpt>
      <trkpt lat="45.16736" lon="4.62109">
        <ele>556.26000976562</ele>
        <time>2013-03-03T10:14:57Z</time>
      </trkpt>
      <trkpt lat="45.16711" lon="4.62072">
        <ele>549.53076171875</ele>
        <time>2013-03-03T10:15:03Z</time>
      </trkpt>
      <trkpt lat="45.16691" lon="4.62054">
        <ele>545.20483398438</ele>
        <time>2013-03-03T10:15:08Z</time>
      </trkpt>
      <trkpt lat="45.1669" lon="4.62036">
        <ele>543.76281738281</ele>
        <time>2013-03-03T10:15:12Z</time>
      </trkpt>
      <trkpt lat="45.16701" lon="4.62008">
        <ele>540.39831542969</ele>
        <time>2013-03-03T10:15:17Z</time>
      </trkpt>
      <trkpt lat="45.16691" lon="4.62012">
        <ele>539.43688964844</ele>
        <time>2013-03-03T10:15:23Z</time>
      </trkpt>
      <trkpt lat="45.16677" lon="4.62032">
        <ele>538.47570800781</ele>
        <time>2013-03-03T10:15:32Z</time>
      </trkpt>
      <trkpt lat="45.16677" lon="4.62032">
        <ele>538.47570800781</ele>
        <time>2013-03-03T10:15:48Z</time>
      </trkpt>
      <trkpt lat="45.16664" lon="4.62055">
        <ele>536.07238769531</ele>
        <time>2013-03-03T10:16:00Z</time>
      </trkpt>
      <trkpt lat="45.16664" lon="4.62067">
        <ele>534.63037109375</ele>
        <time>2013-03-03T10:16:02Z</time>
      </trkpt>
      <trkpt lat="45.16649" lon="4.62068">
        <ele>528.3818359375</ele>
        <time>2013-03-03T10:16:07Z</time>
      </trkpt>
      <trkpt lat="45.16642" lon="4.62045">
        <ele>534.14965820312</ele>
        <time>2013-03-03T10:22:26Z</time>
      </trkpt>
      <trkpt lat="45.16653" lon="4.62008">
        <ele>530.30444335938</ele>
        <time>2013-03-03T10:22:36Z</time>
      </trkpt>
      <trkpt lat="45.16664" lon="4.6198">
        <ele>527.42041015625</ele>
        <time>2013-03-03T10:22:40Z</time>
      </trkpt>
      <trkpt lat="45.16664" lon="4.61953">
        <ele>526.45910644531</ele>
        <time>2013-03-03T10:22:44Z</time>
      </trkpt>
      <trkpt lat="45.16661" lon="4.61945">
        <ele>528.86254882812</ele>
        <time>2013-03-03T10:22:49Z</time>
      </trkpt>
      <trkpt lat="45.16667" lon="4.61938">
        <ele>530.30444335938</ele>
        <time>2013-03-03T10:22:58Z</time>
      </trkpt>
      <trkpt lat="45.16669" lon="4.61938">
        <ele>529.34313964844</ele>
        <time>2013-03-03T10:23:10Z</time>
      </trkpt>
      <trkpt lat="45.16669" lon="4.61937">
        <ele>528.86254882812</ele>
        <time>2013-03-03T10:23:17Z</time>
      </trkpt>
      <trkpt lat="45.16688" lon="4.61927">
        <ele>532.22705078125</ele>
        <time>2013-03-03T10:23:31Z</time>
      </trkpt>
      <trkpt lat="45.16699" lon="4.61914">
        <ele>534.63037109375</ele>
        <time>2013-03-03T10:23:41Z</time>
      </trkpt>
      <trkpt lat="45.16703" lon="4.61907">
        <ele>533.6689453125</ele>
        <time>2013-03-03T10:23:46Z</time>
      </trkpt>
      <trkpt lat="45.16711" lon="4.6189">
        <ele>533.18835449219</ele>
        <time>2013-03-03T10:23:58Z</time>
      </trkpt>
      <trkpt lat="45.16711" lon="4.6188">
        <ele>534.14965820312</ele>
        <time>2013-03-03T10:24:08Z</time>
      </trkpt>
      <trkpt lat="45.16711" lon="4.61878">
        <ele>534.63037109375</ele>
        <time>2013-03-03T10:24:30Z</time>
      </trkpt>
      <trkpt lat="45.16712" lon="4.61872">
        <ele>534.14965820312</ele>
        <time>2013-03-03T10:24:34Z</time>
      </trkpt>
      <trkpt lat="45.16711" lon="4.61854">
        <ele>536.55310058594</ele>
        <time>2013-03-03T10:24:44Z</time>
      </trkpt>
      <trkpt lat="45.16709" lon="4.61841">
        <ele>537.99499511719</ele>
        <time>2013-03-03T10:24:51Z</time>
      </trkpt>
      <trkpt lat="45.16707" lon="4.61835">
        <ele>539.43688964844</ele>
        <time>2013-03-03T10:24:55Z</time>
      </trkpt>
      <trkpt lat="45.16701" lon="4.61809">
        <ele>542.80151367188</ele>
        <time>2013-03-03T10:25:07Z</time>
      </trkpt>
      <trkpt lat="45.16698" lon="4.61804">
        <ele>543.28210449219</ele>
        <time>2013-03-03T10:25:10Z</time>
      </trkpt>
      <trkpt lat="45.16695" lon="4.61793">
        <ele>545.20483398438</ele>
        <time>2013-03-03T10:25:15Z</time>
      </trkpt>
      <trkpt lat="45.16695" lon="4.61772">
        <ele>547.60815429688</ele>
        <time>2013-03-03T10:25:26Z</time>
      </trkpt>
      <trkpt lat="45.16692" lon="4.61752">
        <ele>548.5693359375</ele>
        <time>2013-03-03T10:25:39Z</time>
      </trkpt>
      <trkpt lat="45.1669" lon="4.61745">
        <ele>548.0888671875</ele>
        <time>2013-03-03T10:25:44Z</time>
      </trkpt>
      <trkpt lat="45.16691" lon="4.61723">
        <ele>551.93408203125</ele>
        <time>2013-03-03T10:26:00Z</time>
      </trkpt>
      <trkpt lat="45.16691" lon="4.61722">
        <ele>552.89526367188</ele>
        <time>2013-03-03T10:26:01Z</time>
      </trkpt>
      <trkpt lat="45.16689" lon="4.61696">
        <ele>551.93408203125</ele>
        <time>2013-03-03T10:26:15Z</time>
      </trkpt>
      <trkpt lat="45.16691" lon="4.61679">
        <ele>551.45336914062</ele>
        <time>2013-03-03T10:26:23Z</time>
      </trkpt>
      <trkpt lat="45.1669" lon="4.61656">
        <ele>550.01147460938</ele>
        <time>2013-03-03T10:26:34Z</time>
      </trkpt>
      <trkpt lat="45.16689" lon="4.61654">
        <ele>550.01147460938</ele>
        <time>2013-03-03T10:26:35Z</time>
      </trkpt>
      <trkpt lat="45.16687" lon="4.61635">
        <ele>550.01147460938</ele>
        <time>2013-03-03T10:26:43Z</time>
      </trkpt>
      <trkpt lat="45.16685" lon="4.61628">
        <ele>552.41455078125</ele>
        <time>2013-03-03T10:26:47Z</time>
      </trkpt>
      <trkpt lat="45.16678" lon="4.61599">
        <ele>554.81787109375</ele>
        <time>2013-03-03T10:27:01Z</time>
      </trkpt>
      <trkpt lat="45.16679" lon="4.61586">
        <ele>557.7021484375</ele>
        <time>2013-03-03T10:27:06Z</time>
      </trkpt>
      <trkpt lat="45.16677" lon="4.61582">
        <ele>559.14404296875</ele>
        <time>2013-03-03T10:27:08Z</time>
      </trkpt>
      <trkpt lat="45.1668" lon="4.61546">
        <ele>562.9892578125</ele>
        <time>2013-03-03T10:27:24Z</time>
      </trkpt>
      <trkpt lat="45.1668" lon="4.61543">
        <ele>562.9892578125</ele>
        <time>2013-03-03T10:27:26Z</time>
      </trkpt>
      <trkpt lat="45.16679" lon="4.61533">
        <ele>563.95043945312</ele>
        <time>2013-03-03T10:27:31Z</time>
      </trkpt>
      <trkpt lat="45.16678" lon="4.61527">
        <ele>565.392578125</ele>
        <time>2013-03-03T10:27:35Z</time>
      </trkpt>
      <trkpt lat="45.16678" lon="4.61504">
        <ele>565.392578125</ele>
        <time>2013-03-03T10:27:48Z</time>
      </trkpt>
      <trkpt lat="45.16675" lon="4.615">
        <ele>565.392578125</ele>
        <time>2013-03-03T10:27:51Z</time>
      </trkpt>
      <trkpt lat="45.16672" lon="4.61478">
        <ele>568.2763671875</ele>
        <time>2013-03-03T10:28:04Z</time>
      </trkpt>
      <trkpt lat="45.16668" lon="4.61454">
        <ele>570.6796875</ele>
        <time>2013-03-03T10:28:17Z</time>
      </trkpt>
      <trkpt lat="45.16667" lon="4.6145">
        <ele>571.16040039062</ele>
        <time>2013-03-03T10:28:20Z</time>
      </trkpt>
      <trkpt lat="45.16664" lon="4.61439">
        <ele>573.08325195312</ele>
        <time>2013-03-03T10:28:27Z</time>
      </trkpt>
      <trkpt lat="45.1666" lon="4.61429">
        <ele>574.52514648438</ele>
        <time>2013-03-03T10:28:34Z</time>
      </trkpt>
      <trkpt lat="45.16663" lon="4.61419">
        <ele>575.486328125</ele>
        <time>2013-03-03T10:28:43Z</time>
      </trkpt>
      <trkpt lat="45.16667" lon="4.61421">
        <ele>575.96704101562</ele>
        <time>2013-03-03T10:28:46Z</time>
      </trkpt>
      <trkpt lat="45.16672" lon="4.61424">
        <ele>575.96704101562</ele>
        <time>2013-03-03T10:28:50Z</time>
      </trkpt>
      <trkpt lat="45.16681" lon="4.6143">
        <ele>575.486328125</ele>
        <time>2013-03-03T10:28:58Z</time>
      </trkpt>
      <trkpt lat="45.1669" lon="4.61443">
        <ele>576.44775390625</ele>
        <time>2013-03-03T10:29:10Z</time>
      </trkpt>
      <trkpt lat="45.16693" lon="4.61446">
        <ele>577.4091796875</ele>
        <time>2013-03-03T10:29:14Z</time>
      </trkpt>
      <trkpt lat="45.16698" lon="4.61449">
        <ele>577.8896484375</ele>
        <time>2013-03-03T10:29:18Z</time>
      </trkpt>
      <trkpt lat="45.16709" lon="4.61452">
        <ele>580.29296875</ele>
        <time>2013-03-03T10:29:30Z</time>
      </trkpt>
      <trkpt lat="45.16716" lon="4.61457">
        <ele>582.6962890625</ele>
        <time>2013-03-03T10:29:37Z</time>
      </trkpt>
      <trkpt lat="45.16721" lon="4.61465">
        <ele>583.1767578125</ele>
        <time>2013-03-03T10:29:44Z</time>
      </trkpt>
      <trkpt lat="45.16725" lon="4.61471">
        <ele>583.65747070312</ele>
        <time>2013-03-03T10:29:50Z</time>
      </trkpt>
      <trkpt lat="45.1673" lon="4.61476">
        <ele>585.580078125</ele>
        <time>2013-03-03T10:29:55Z</time>
      </trkpt>
      <trkpt lat="45.16736" lon="4.61486">
        <ele>587.50268554688</ele>
        <time>2013-03-03T10:30:09Z</time>
      </trkpt>
      <trkpt lat="45.1674" lon="4.61493">
        <ele>586.06079101562</ele>
        <time>2013-03-03T10:30:51Z</time>
      </trkpt>
      <trkpt lat="45.16753" lon="4.61515">
        <ele>584.61889648438</ele>
        <time>2013-03-03T10:31:06Z</time>
      </trkpt>
      <trkpt lat="45.1677" lon="4.61539">
        <ele>585.099609375</ele>
        <time>2013-03-03T10:31:24Z</time>
      </trkpt>
      <trkpt lat="45.16775" lon="4.61542">
        <ele>586.54150390625</ele>
        <time>2013-03-03T10:31:28Z</time>
      </trkpt>
      <trkpt lat="45.1679" lon="4.6154">
        <ele>587.9833984375</ele>
        <time>2013-03-03T10:31:41Z</time>
      </trkpt>
      <trkpt lat="45.16797" lon="4.61539">
        <ele>589.42553710938</ele>
        <time>2013-03-03T10:31:47Z</time>
      </trkpt>
      <trkpt lat="45.16801" lon="4.61537">
        <ele>589.42553710938</ele>
        <time>2013-03-03T10:31:52Z</time>
      </trkpt>
      <trkpt lat="45.16804" lon="4.61536">
        <ele>589.42553710938</ele>
        <time>2013-03-03T10:31:54Z</time>
      </trkpt>
      <trkpt lat="45.1682" lon="4.61519">
        <ele>590.86743164062</ele>
        <time>2013-03-03T10:32:09Z</time>
      </trkpt>
      <trkpt lat="45.16823" lon="4.61513">
        <ele>591.82885742188</ele>
        <time>2013-03-03T10:32:19Z</time>
      </trkpt>
      <trkpt lat="45.16823" lon="4.61513">
        <ele>591.82885742188</ele>
        <time>2013-03-03T10:32:26Z</time>
      </trkpt>
      <trkpt lat="45.16824" lon="4.61513">
        <ele>592.3095703125</ele>
        <time>2013-03-03T10:32:38Z</time>
      </trkpt>
      <trkpt lat="45.16825" lon="4.61513">
        <ele>592.3095703125</ele>
        <time>2013-03-03T10:33:40Z</time>
      </trkpt>
      <trkpt lat="45.16827" lon="4.61501">
        <ele>592.79028320312</ele>
        <time>2013-03-03T10:33:47Z</time>
      </trkpt>
      <trkpt lat="45.16827" lon="4.61492">
        <ele>591.82885742188</ele>
        <time>2013-03-03T10:33:51Z</time>
      </trkpt>
      <trkpt lat="45.16828" lon="4.61485">
        <ele>593.27075195312</ele>
        <time>2013-03-03T10:33:55Z</time>
      </trkpt>
      <trkpt lat="45.16829" lon="4.61478">
        <ele>594.23217773438</ele>
        <time>2013-03-03T10:33:58Z</time>
      </trkpt>
      <trkpt lat="45.1683" lon="4.61445">
        <ele>597.5966796875</ele>
        <time>2013-03-03T10:34:13Z</time>
      </trkpt>
      <trkpt lat="45.16826" lon="4.61427">
        <ele>598.55786132812</ele>
        <time>2013-03-03T10:34:22Z</time>
      </trkpt>
      <trkpt lat="45.16826" lon="4.61405">
        <ele>599.03857421875</ele>
        <time>2013-03-03T10:34:34Z</time>
      </trkpt>
      <trkpt lat="45.16825" lon="4.61402">
        <ele>599.03857421875</ele>
        <time>2013-03-03T10:34:46Z</time>
      </trkpt>
      <trkpt lat="45.16825" lon="4.61403">
        <ele>599.03857421875</ele>
        <time>2013-03-03T10:35:05Z</time>
      </trkpt>
      <trkpt lat="45.16825" lon="4.61403">
        <ele>599.03857421875</ele>
        <time>2013-03-03T10:35:36Z</time>
      </trkpt>
      <trkpt lat="45.16812" lon="4.61365">
        <ele>599.51928710938</ele>
        <time>2013-03-03T10:35:56Z</time>
      </trkpt>
      <trkpt lat="45.16798" lon="4.61328">
        <ele>600</ele>
        <time>2013-03-03T10:36:18Z</time>
      </trkpt>
      <trkpt lat="45.16792" lon="4.61312">
        <ele>600.48071289062</ele>
        <time>2013-03-03T10:36:28Z</time>
      </trkpt>
      <trkpt lat="45.1678" lon="4.61282">
        <ele>602.8837890625</ele>
        <time>2013-03-03T10:36:47Z</time>
      </trkpt>
      <trkpt lat="45.16776" lon="4.61271">
        <ele>604.326171875</ele>
        <time>2013-03-03T10:36:54Z</time>
      </trkpt>
      <trkpt lat="45.16776" lon="4.61261">
        <ele>605.28735351562</ele>
        <time>2013-03-03T10:37:01Z</time>
      </trkpt>
      <trkpt lat="45.16775" lon="4.61256">
        <ele>605.76806640625</ele>
        <time>2013-03-03T10:37:05Z</time>
      </trkpt>
      <trkpt lat="45.16766" lon="4.61235">
        <ele>608.65185546875</ele>
        <time>2013-03-03T10:37:20Z</time>
      </trkpt>
      <trkpt lat="45.16757" lon="4.61211">
        <ele>611.53588867188</ele>
        <time>2013-03-03T10:37:38Z</time>
      </trkpt>
      <trkpt lat="45.16752" lon="4.61192">
        <ele>612.97778320312</ele>
        <time>2013-03-03T10:37:53Z</time>
      </trkpt>
      <trkpt lat="45.16748" lon="4.61176">
        <ele>613.93896484375</ele>
        <time>2013-03-03T10:38:06Z</time>
      </trkpt>
      <trkpt lat="45.16749" lon="4.61172">
        <ele>613.93896484375</ele>
        <time>2013-03-03T10:38:15Z</time>
      </trkpt>
      <trkpt lat="45.16749" lon="4.61171">
        <ele>614.41967773438</ele>
        <time>2013-03-03T10:38:16Z</time>
      </trkpt>
      <trkpt lat="45.16745" lon="4.61154">
        <ele>616.34228515625</ele>
        <time>2013-03-03T10:38:29Z</time>
      </trkpt>
      <trkpt lat="45.16744" lon="4.61151">
        <ele>616.34228515625</ele>
        <time>2013-03-03T10:38:31Z</time>
      </trkpt>
      <trkpt lat="45.16742" lon="4.61139">
        <ele>618.74560546875</ele>
        <time>2013-03-03T10:38:42Z</time>
      </trkpt>
      <trkpt lat="45.16742" lon="4.61137">
        <ele>618.74560546875</ele>
        <time>2013-03-03T10:38:44Z</time>
      </trkpt>
      <trkpt lat="45.16743" lon="4.61132">
        <ele>619.22631835938</ele>
        <time>2013-03-03T10:38:47Z</time>
      </trkpt>
      <trkpt lat="45.16754" lon="4.61108">
        <ele>620.66845703125</ele>
        <time>2013-03-03T10:39:05Z</time>
      </trkpt>
      <trkpt lat="45.16756" lon="4.61096">
        <ele>623.07177734375</ele>
        <time>2013-03-03T10:39:16Z</time>
      </trkpt>
      <trkpt lat="45.1676" lon="4.61083">
        <ele>625.95556640625</ele>
        <time>2013-03-03T10:39:26Z</time>
      </trkpt>
      <trkpt lat="45.16759" lon="4.61071">
        <ele>627.87817382812</ele>
        <time>2013-03-03T10:39:35Z</time>
      </trkpt>
      <trkpt lat="45.1676" lon="4.61063">
        <ele>629.32006835938</ele>
        <time>2013-03-03T10:39:40Z</time>
      </trkpt>
      <trkpt lat="45.16756" lon="4.61053">
        <ele>628.35888671875</ele>
        <time>2013-03-03T10:39:49Z</time>
      </trkpt>
      <trkpt lat="45.16756" lon="4.61043">
        <ele>631.24291992188</ele>
        <time>2013-03-03T10:39:56Z</time>
      </trkpt>
      <trkpt lat="45.16752" lon="4.61018">
        <ele>634.12670898438</ele>
        <time>2013-03-03T10:40:12Z</time>
      </trkpt>
      <trkpt lat="45.16744" lon="4.60989">
        <ele>637.97216796875</ele>
        <time>2013-03-03T10:40:34Z</time>
      </trkpt>
      <trkpt lat="45.1674" lon="4.60983">
        <ele>638.93359375</ele>
        <time>2013-03-03T10:40:39Z</time>
      </trkpt>
      <trkpt lat="45.16737" lon="4.6098">
        <ele>639.4140625</ele>
        <time>2013-03-03T10:40:42Z</time>
      </trkpt>
      <trkpt lat="45.16712" lon="4.60964">
        <ele>641.8173828125</ele>
        <time>2013-03-03T10:41:06Z</time>
      </trkpt>
      <trkpt lat="45.16704" lon="4.60955">
        <ele>642.77880859375</ele>
        <time>2013-03-03T10:41:22Z</time>
      </trkpt>
      <trkpt lat="45.16699" lon="4.60947">
        <ele>643.25927734375</ele>
        <time>2013-03-03T10:43:17Z</time>
      </trkpt>
      <trkpt lat="45.16681" lon="4.60916">
        <ele>644.220703125</ele>
        <time>2013-03-03T10:43:29Z</time>
      </trkpt>
      <trkpt lat="45.16661" lon="4.6088">
        <ele>648.54638671875</ele>
        <time>2013-03-03T10:43:44Z</time>
      </trkpt>
      <trkpt lat="45.16665" lon="4.60873">
        <ele>649.5078125</ele>
        <time>2013-03-03T10:43:48Z</time>
      </trkpt>
      <trkpt lat="45.16697" lon="4.60868">
        <ele>652.39184570312</ele>
        <time>2013-03-03T10:44:05Z</time>
      </trkpt>
      <trkpt lat="45.16728" lon="4.6086">
        <ele>653.35327148438</ele>
        <time>2013-03-03T10:44:21Z</time>
      </trkpt>
      <trkpt lat="45.16747" lon="4.60833">
        <ele>652.87255859375</ele>
        <time>2013-03-03T10:44:36Z</time>
      </trkpt>
      <trkpt lat="45.16762" lon="4.60794">
        <ele>649.5078125</ele>
        <time>2013-03-03T10:44:47Z</time>
      </trkpt>
      <trkpt lat="45.16765" lon="4.60773">
        <ele>649.02709960938</ele>
        <time>2013-03-03T10:44:51Z</time>
      </trkpt>
      <trkpt lat="45.16763" lon="4.60681">
        <ele>647.58520507812</ele>
        <time>2013-03-03T10:45:05Z</time>
      </trkpt>
      <trkpt lat="45.16758" lon="4.60609">
        <ele>647.58520507812</ele>
        <time>2013-03-03T10:45:18Z</time>
      </trkpt>
      <trkpt lat="45.16749" lon="4.60556">
        <ele>647.1044921875</ele>
        <time>2013-03-03T10:45:28Z</time>
      </trkpt>
      <trkpt lat="45.16739" lon="4.60526">
        <ele>646.14331054688</ele>
        <time>2013-03-03T10:45:33Z</time>
      </trkpt>
      <trkpt lat="45.16744" lon="4.60491">
        <ele>645.18188476562</ele>
        <time>2013-03-03T10:45:38Z</time>
      </trkpt>
      <trkpt lat="45.16754" lon="4.60486">
        <ele>645.18188476562</ele>
        <time>2013-03-03T10:45:40Z</time>
      </trkpt>
      <trkpt lat="45.16763" lon="4.6046">
        <ele>644.701171875</ele>
        <time>2013-03-03T10:45:44Z</time>
      </trkpt>
      <trkpt lat="45.16791" lon="4.60406">
        <ele>644.701171875</ele>
        <time>2013-03-03T10:45:52Z</time>
      </trkpt>
      <trkpt lat="45.16808" lon="4.60393">
        <ele>649.02709960938</ele>
        <time>2013-03-03T10:46:00Z</time>
      </trkpt>
      <trkpt lat="45.1684" lon="4.60384">
        <ele>653.833984375</ele>
        <time>2013-03-03T10:46:15Z</time>
      </trkpt>
      <trkpt lat="45.16855" lon="4.60383">
        <ele>655.75659179688</ele>
        <time>2013-03-03T10:46:27Z</time>
      </trkpt>
      <trkpt lat="45.16877" lon="4.60379">
        <ele>656.23706054688</ele>
        <time>2013-03-03T10:46:37Z</time>
      </trkpt>
      <trkpt lat="45.16899" lon="4.60357">
        <ele>654.79516601562</ele>
        <time>2013-03-03T10:46:48Z</time>
      </trkpt>
      <trkpt lat="45.16932" lon="4.60316">
        <ele>652.87255859375</ele>
        <time>2013-03-03T10:47:00Z</time>
      </trkpt>
      <trkpt lat="45.16964" lon="4.603">
        <ele>651.43041992188</ele>
        <time>2013-03-03T10:47:07Z</time>
      </trkpt>
      <trkpt lat="45.16993" lon="4.60264">
        <ele>649.02709960938</ele>
        <time>2013-03-03T10:47:13Z</time>
      </trkpt>
      <trkpt lat="45.17009" lon="4.60232">
        <ele>648.54638671875</ele>
        <time>2013-03-03T10:47:17Z</time>
      </trkpt>
      <trkpt lat="45.17022" lon="4.60188">
        <ele>649.98852539062</ele>
        <time>2013-03-03T10:47:23Z</time>
      </trkpt>
      <trkpt lat="45.17029" lon="4.60145">
        <ele>651.43041992188</ele>
        <time>2013-03-03T10:47:29Z</time>
      </trkpt>
      <trkpt lat="45.17035" lon="4.60119">
        <ele>652.39184570312</ele>
        <time>2013-03-03T10:47:33Z</time>
      </trkpt>
      <trkpt lat="45.17052" lon="4.60077">
        <ele>656.23706054688</ele>
        <time>2013-03-03T10:47:40Z</time>
      </trkpt>
      <trkpt lat="45.17074" lon="4.60075">
        <ele>653.833984375</ele>
        <time>2013-03-03T10:47:44Z</time>
      </trkpt>
      <trkpt lat="45.17085" lon="4.60105">
        <ele>653.833984375</ele>
        <time>2013-03-03T10:47:50Z</time>
      </trkpt>
      <trkpt lat="45.17089" lon="4.60159">
        <ele>655.75659179688</ele>
        <time>2013-03-03T10:48:06Z</time>
      </trkpt>
      <trkpt lat="45.17095" lon="4.60214">
        <ele>658.15991210938</ele>
        <time>2013-03-03T10:48:22Z</time>
      </trkpt>
      <trkpt lat="45.17113" lon="4.60275">
        <ele>659.60180664062</ele>
        <time>2013-03-03T10:48:38Z</time>
      </trkpt>
      <trkpt lat="45.17121" lon="4.60328">
        <ele>660.08227539062</ele>
        <time>2013-03-03T10:48:51Z</time>
      </trkpt>
      <trkpt lat="45.17137" lon="4.60379">
        <ele>659.12109375</ele>
        <time>2013-03-03T10:49:06Z</time>
      </trkpt>
      <trkpt lat="45.17151" lon="4.60393">
        <ele>661.5244140625</ele>
        <time>2013-03-03T10:49:17Z</time>
      </trkpt>
      <trkpt lat="45.17158" lon="4.60394">
        <ele>662.96630859375</ele>
        <time>2013-03-03T10:49:22Z</time>
      </trkpt>
      <trkpt lat="45.17171" lon="4.60403">
        <ele>663.44702148438</ele>
        <time>2013-03-03T10:49:30Z</time>
      </trkpt>
      <trkpt lat="45.17178" lon="4.60418">
        <ele>662.48559570312</ele>
        <time>2013-03-03T10:49:35Z</time>
      </trkpt>
      <trkpt lat="45.17193" lon="4.60447">
        <ele>662.00512695312</ele>
        <time>2013-03-03T10:49:45Z</time>
      </trkpt>
      <trkpt lat="45.17197" lon="4.60451">
        <ele>663.92749023438</ele>
        <time>2013-03-03T10:49:53Z</time>
      </trkpt>
      <trkpt lat="45.17197" lon="4.60451">
        <ele>664.408203125</ele>
        <time>2013-03-03T10:50:54Z</time>
      </trkpt>
      <trkpt lat="45.17202" lon="4.6048">
        <ele>662.96630859375</ele>
        <time>2013-03-03T10:51:01Z</time>
      </trkpt>
      <trkpt lat="45.17194" lon="4.60523">
        <ele>661.04370117188</ele>
        <time>2013-03-03T10:51:08Z</time>
      </trkpt>
      <trkpt lat="45.17197" lon="4.6053">
        <ele>661.04370117188</ele>
        <time>2013-03-03T10:51:09Z</time>
      </trkpt>
      <trkpt lat="45.17205" lon="4.60564">
        <ele>659.60180664062</ele>
        <time>2013-03-03T10:51:14Z</time>
      </trkpt>
      <trkpt lat="45.17207" lon="4.60598">
        <ele>658.64038085938</ele>
        <time>2013-03-03T10:51:19Z</time>
      </trkpt>
      <trkpt lat="45.17208" lon="4.60617">
        <ele>656.23706054688</ele>
        <time>2013-03-03T10:51:21Z</time>
      </trkpt>
      <trkpt lat="45.1722" lon="4.60657">
        <ele>654.31469726562</ele>
        <time>2013-03-03T10:51:26Z</time>
      </trkpt>
      <trkpt lat="45.17227" lon="4.60678">
        <ele>653.833984375</ele>
        <time>2013-03-03T10:51:29Z</time>
      </trkpt>
      <trkpt lat="45.17245" lon="4.60746">
        <ele>654.31469726562</ele>
        <time>2013-03-03T10:51:43Z</time>
      </trkpt>
      <trkpt lat="45.17251" lon="4.6077">
        <ele>651.9111328125</ele>
        <time>2013-03-03T10:51:47Z</time>
      </trkpt>
      <trkpt lat="45.17253" lon="4.60795">
        <ele>650.94970703125</ele>
        <time>2013-03-03T10:51:50Z</time>
      </trkpt>
      <trkpt lat="45.17266" lon="4.60816">
        <ele>646.14331054688</ele>
        <time>2013-03-03T10:51:54Z</time>
      </trkpt>
      <trkpt lat="45.17283" lon="4.60831">
        <ele>641.8173828125</ele>
        <time>2013-03-03T10:51:58Z</time>
      </trkpt>
      <trkpt lat="45.17274" lon="4.60872">
        <ele>640.37548828125</ele>
        <time>2013-03-03T10:52:04Z</time>
      </trkpt>
      <trkpt lat="45.17269" lon="4.60894">
        <ele>640.85595703125</ele>
        <time>2013-03-03T10:52:07Z</time>
      </trkpt>
      <trkpt lat="45.17257" lon="4.60932">
        <ele>640.37548828125</ele>
        <time>2013-03-03T10:52:13Z</time>
      </trkpt>
      <trkpt lat="45.17243" lon="4.6099">
        <ele>639.89477539062</ele>
        <time>2013-03-03T10:52:23Z</time>
      </trkpt>
      <trkpt lat="45.17248" lon="4.61037">
        <ele>641.33666992188</ele>
        <time>2013-03-03T10:52:35Z</time>
      </trkpt>
      <trkpt lat="45.1726" lon="4.61064">
        <ele>638.45288085938</ele>
        <time>2013-03-03T10:52:41Z</time>
      </trkpt>
      <trkpt lat="45.17267" lon="4.61083">
        <ele>636.5302734375</ele>
        <time>2013-03-03T10:52:44Z</time>
      </trkpt>
      <trkpt lat="45.1728" lon="4.61121">
        <ele>637.97216796875</ele>
        <time>2013-03-03T10:52:50Z</time>
      </trkpt>
      <trkpt lat="45.17293" lon="4.61172">
        <ele>637.97216796875</ele>
        <time>2013-03-03T10:53:01Z</time>
      </trkpt>
      <trkpt lat="45.17311" lon="4.61208">
        <ele>637.0107421875</ele>
        <time>2013-03-03T10:53:12Z</time>
      </trkpt>
      <trkpt lat="45.17345" lon="4.61231">
        <ele>636.04956054688</ele>
        <time>2013-03-03T10:53:24Z</time>
      </trkpt>
      <trkpt lat="45.17372" lon="4.61243">
        <ele>635.56860351562</ele>
        <time>2013-03-03T10:53:32Z</time>
      </trkpt>
      <trkpt lat="45.17386" lon="4.61286">
        <ele>633.64599609375</ele>
        <time>2013-03-03T10:53:42Z</time>
      </trkpt>
      <trkpt lat="45.1742" lon="4.61325">
        <ele>634.12670898438</ele>
        <time>2013-03-03T10:53:55Z</time>
      </trkpt>
      <trkpt lat="45.17439" lon="4.61338">
        <ele>635.08813476562</ele>
        <time>2013-03-03T10:54:06Z</time>
      </trkpt>
      <trkpt lat="45.17445" lon="4.61342">
        <ele>635.56860351562</ele>
        <time>2013-03-03T10:54:11Z</time>
      </trkpt>
      <trkpt lat="45.17468" lon="4.6136">
        <ele>637.49145507812</ele>
        <time>2013-03-03T10:54:27Z</time>
      </trkpt>
      <trkpt lat="45.17489" lon="4.61386">
        <ele>639.4140625</ele>
        <time>2013-03-03T10:54:46Z</time>
      </trkpt>
      <trkpt lat="45.17489" lon="4.61386">
        <ele>638.93359375</ele>
        <time>2013-03-03T10:54:53Z</time>
      </trkpt>
      <trkpt lat="45.17503" lon="4.61413">
        <ele>640.85595703125</ele>
        <time>2013-03-03T10:55:03Z</time>
      </trkpt>
      <trkpt lat="45.17527" lon="4.61473">
        <ele>646.14331054688</ele>
        <time>2013-03-03T10:55:19Z</time>
      </trkpt>
      <trkpt lat="45.17537" lon="4.61498">
        <ele>647.1044921875</ele>
        <time>2013-03-03T10:55:26Z</time>
      </trkpt>
      <trkpt lat="45.17538" lon="4.61499">
        <ele>647.58520507812</ele>
        <time>2013-03-03T10:55:34Z</time>
      </trkpt>
      <trkpt lat="45.17538" lon="4.61499">
        <ele>647.58520507812</ele>
        <time>2013-03-03T10:56:41Z</time>
      </trkpt>
      <trkpt lat="45.17541" lon="4.61504">
        <ele>647.58520507812</ele>
        <time>2013-03-03T10:56:43Z</time>
      </trkpt>
      <trkpt lat="45.17563" lon="4.61528">
        <ele>649.02709960938</ele>
        <time>2013-03-03T10:56:57Z</time>
      </trkpt>
      <trkpt lat="45.17565" lon="4.6153">
        <ele>649.02709960938</ele>
        <time>2013-03-03T10:57:09Z</time>
      </trkpt>
      <trkpt lat="45.1757" lon="4.61533">
        <ele>648.54638671875</ele>
        <time>2013-03-03T10:57:17Z</time>
      </trkpt>
      <trkpt lat="45.1757" lon="4.61533">
        <ele>647.1044921875</ele>
        <time>2013-03-03T10:57:21Z</time>
      </trkpt>
      <trkpt lat="45.17604" lon="4.61555">
        <ele>644.701171875</ele>
        <time>2013-03-03T10:57:28Z</time>
      </trkpt>
      <trkpt lat="45.17631" lon="4.61568">
        <ele>643.25927734375</ele>
        <time>2013-03-03T10:57:31Z</time>
      </trkpt>
      <trkpt lat="45.17658" lon="4.61571">
        <ele>641.8173828125</ele>
        <time>2013-03-03T10:57:35Z</time>
      </trkpt>
      <trkpt lat="45.17686" lon="4.61584">
        <ele>640.37548828125</ele>
        <time>2013-03-03T10:57:39Z</time>
      </trkpt>
      <trkpt lat="45.17699" lon="4.61595">
        <ele>639.4140625</ele>
        <time>2013-03-03T10:57:41Z</time>
      </trkpt>
      <trkpt lat="45.17721" lon="4.61607">
        <ele>637.97216796875</ele>
        <time>2013-03-03T10:57:44Z</time>
      </trkpt>
      <trkpt lat="45.17775" lon="4.61624">
        <ele>633.64599609375</ele>
        <time>2013-03-03T10:57:52Z</time>
      </trkpt>
      <trkpt lat="45.17795" lon="4.61629">
        <ele>633.16528320312</ele>
        <time>2013-03-03T10:58:00Z</time>
      </trkpt>
      <trkpt lat="45.17829" lon="4.61657">
        <ele>633.16528320312</ele>
        <time>2013-03-03T10:58:09Z</time>
      </trkpt>
      <trkpt lat="45.17859" lon="4.61678">
        <ele>633.16528320312</ele>
        <time>2013-03-03T10:58:19Z</time>
      </trkpt>
      <trkpt lat="45.17859" lon="4.61678">
        <ele>632.2041015625</ele>
        <time>2013-03-03T10:58:29Z</time>
      </trkpt>
      <trkpt lat="45.17859" lon="4.61678">
        <ele>631.24291992188</ele>
        <time>2013-03-03T11:06:34Z</time>
      </trkpt>
      <trkpt lat="45.17859" lon="4.61678">
        <ele>633.16528320312</ele>
        <time>2013-03-03T11:06:43Z</time>
      </trkpt>
      <trkpt lat="45.17859" lon="4.61678">
        <ele>633.16528320312</ele>
        <time>2013-03-03T11:06:59Z</time>
      </trkpt>
      <trkpt lat="45.17859" lon="4.61678">
        <ele>631.72338867188</ele>
        <time>2013-03-03T11:07:27Z</time>
      </trkpt>
      <trkpt lat="45.17859" lon="4.61678">
        <ele>631.24291992188</ele>
        <time>2013-03-03T11:07:46Z</time>
      </trkpt>
      <trkpt lat="45.17859" lon="4.61678">
        <ele>629.80078125</ele>
        <time>2013-03-03T11:08:05Z</time>
      </trkpt>
      <trkpt lat="45.17859" lon="4.61678">
        <ele>629.32006835938</ele>
        <time>2013-03-03T11:08:36Z</time>
      </trkpt>
      <trkpt lat="45.17859" lon="4.61678">
        <ele>627.87817382812</ele>
        <time>2013-03-03T11:08:52Z</time>
      </trkpt>
      <trkpt lat="45.17859" lon="4.61678">
        <ele>626.9169921875</ele>
        <time>2013-03-03T11:09:27Z</time>
      </trkpt>
      <trkpt lat="45.17859" lon="4.61678">
        <ele>626.9169921875</ele>
        <time>2013-03-03T11:09:41Z</time>
      </trkpt>
      <trkpt lat="45.17859" lon="4.61678">
        <ele>622.59106445312</ele>
        <time>2013-03-03T11:10:21Z</time>
      </trkpt>
      <trkpt lat="45.17859" lon="4.61678">
        <ele>624.03295898438</ele>
        <time>2013-03-03T11:11:52Z</time>
      </trkpt>
      <trkpt lat="45.17859" lon="4.61678">
        <ele>624.03295898438</ele>
        <time>2013-03-03T11:11:54Z</time>
      </trkpt>
      <trkpt lat="45.17859" lon="4.61678">
        <ele>625.47485351562</ele>
        <time>2013-03-03T11:11:59Z</time>
      </trkpt>
      <trkpt lat="45.17898" lon="4.61693">
        <ele>628.83959960938</ele>
        <time>2013-03-03T11:12:16Z</time>
      </trkpt>
      <trkpt lat="45.17924" lon="4.61695">
        <ele>632.2041015625</ele>
        <time>2013-03-03T11:12:33Z</time>
      </trkpt>
      <trkpt lat="45.1794" lon="4.61694">
        <ele>635.08813476562</ele>
        <time>2013-03-03T11:12:45Z</time>
      </trkpt>
      <trkpt lat="45.17943" lon="4.61693">
        <ele>635.56860351562</ele>
        <time>2013-03-03T11:12:47Z</time>
      </trkpt>
      <trkpt lat="45.17967" lon="4.6168">
        <ele>636.04956054688</ele>
        <time>2013-03-03T11:13:05Z</time>
      </trkpt>
      <trkpt lat="45.17986" lon="4.61667">
        <ele>637.97216796875</ele>
        <time>2013-03-03T11:13:20Z</time>
      </trkpt>
      <trkpt lat="45.18012" lon="4.61654">
        <ele>637.97216796875</ele>
        <time>2013-03-03T11:13:37Z</time>
      </trkpt>
      <trkpt lat="45.18028" lon="4.61647">
        <ele>637.0107421875</ele>
        <time>2013-03-03T11:13:46Z</time>
      </trkpt>
      <trkpt lat="45.18057" lon="4.61621">
        <ele>637.0107421875</ele>
        <time>2013-03-03T11:13:55Z</time>
      </trkpt>
      <trkpt lat="45.18077" lon="4.61611">
        <ele>638.93359375</ele>
        <time>2013-03-03T11:14:05Z</time>
      </trkpt>
      <trkpt lat="45.18098" lon="4.61599">
        <ele>639.4140625</ele>
        <time>2013-03-03T11:14:22Z</time>
      </trkpt>
      <trkpt lat="45.1814" lon="4.6157">
        <ele>639.4140625</ele>
        <time>2013-03-03T11:14:36Z</time>
      </trkpt>
      <trkpt lat="45.18165" lon="4.61554">
        <ele>640.85595703125</ele>
        <time>2013-03-03T11:14:50Z</time>
      </trkpt>
      <trkpt lat="45.1819" lon="4.61541">
        <ele>642.29809570312</ele>
        <time>2013-03-03T11:15:04Z</time>
      </trkpt>
      <trkpt lat="45.18226" lon="4.61533">
        <ele>643.25927734375</ele>
        <time>2013-03-03T11:15:20Z</time>
      </trkpt>
      <trkpt lat="45.18251" lon="4.61536">
        <ele>644.220703125</ele>
        <time>2013-03-03T11:15:33Z</time>
      </trkpt>
      <trkpt lat="45.18251" lon="4.61536">
        <ele>644.220703125</ele>
        <time>2013-03-03T11:15:35Z</time>
      </trkpt>
      <trkpt lat="45.18251" lon="4.61536">
        <ele>644.701171875</ele>
        <time>2013-03-03T11:15:44Z</time>
      </trkpt>
      <trkpt lat="45.1825" lon="4.61514">
        <ele>646.14331054688</ele>
        <time>2013-03-03T11:17:23Z</time>
      </trkpt>
      <trkpt lat="45.18252" lon="4.61481">
        <ele>649.02709960938</ele>
        <time>2013-03-03T11:17:37Z</time>
      </trkpt>
      <trkpt lat="45.18254" lon="4.61473">
        <ele>649.98852539062</ele>
        <time>2013-03-03T11:17:41Z</time>
      </trkpt>
      <trkpt lat="45.18273" lon="4.6144">
        <ele>651.9111328125</ele>
        <time>2013-03-03T11:17:58Z</time>
      </trkpt>
      <trkpt lat="45.18288" lon="4.61421">
        <ele>652.87255859375</ele>
        <time>2013-03-03T11:18:08Z</time>
      </trkpt>
      <trkpt lat="45.183" lon="4.614">
        <ele>654.79516601562</ele>
        <time>2013-03-03T11:18:21Z</time>
      </trkpt>
      <trkpt lat="45.18319" lon="4.61372">
        <ele>653.833984375</ele>
        <time>2013-03-03T11:18:36Z</time>
      </trkpt>
      <trkpt lat="45.1833" lon="4.61349">
        <ele>652.87255859375</ele>
        <time>2013-03-03T11:18:41Z</time>
      </trkpt>
      <trkpt lat="45.18344" lon="4.61337">
        <ele>652.87255859375</ele>
        <time>2013-03-03T11:18:45Z</time>
      </trkpt>
      <trkpt lat="45.18368" lon="4.61349">
        <ele>655.75659179688</ele>
        <time>2013-03-03T11:18:55Z</time>
      </trkpt>
      <trkpt lat="45.18389" lon="4.61379">
        <ele>658.64038085938</ele>
        <time>2013-03-03T11:19:11Z</time>
      </trkpt>
      <trkpt lat="45.18413" lon="4.61373">
        <ele>661.04370117188</ele>
        <time>2013-03-03T11:19:25Z</time>
      </trkpt>
      <trkpt lat="45.18436" lon="4.61364">
        <ele>662.00512695312</ele>
        <time>2013-03-03T11:19:38Z</time>
      </trkpt>
      <trkpt lat="45.18443" lon="4.61388">
        <ele>662.00512695312</ele>
        <time>2013-03-03T11:19:50Z</time>
      </trkpt>
      <trkpt lat="45.1846" lon="4.61432">
        <ele>659.60180664062</ele>
        <time>2013-03-03T11:20:04Z</time>
      </trkpt>
      <trkpt lat="45.18464" lon="4.61441">
        <ele>659.12109375</ele>
        <time>2013-03-03T11:20:06Z</time>
      </trkpt>
      <trkpt lat="45.18459" lon="4.61463">
        <ele>658.64038085938</ele>
        <time>2013-03-03T11:20:12Z</time>
      </trkpt>
      <trkpt lat="45.18453" lon="4.61468">
        <ele>658.64038085938</ele>
        <time>2013-03-03T11:20:14Z</time>
      </trkpt>
      <trkpt lat="45.18434" lon="4.615">
        <ele>659.60180664062</ele>
        <time>2013-03-03T11:20:25Z</time>
      </trkpt>
      <trkpt lat="45.18431" lon="4.61509">
        <ele>659.60180664062</ele>
        <time>2013-03-03T11:20:28Z</time>
      </trkpt>
      <trkpt lat="45.18429" lon="4.61519">
        <ele>660.08227539062</ele>
        <time>2013-03-03T11:20:32Z</time>
      </trkpt>
      <trkpt lat="45.1842" lon="4.61563">
        <ele>658.64038085938</ele>
        <time>2013-03-03T11:20:44Z</time>
      </trkpt>
      <trkpt lat="45.1842" lon="4.61579">
        <ele>658.15991210938</ele>
        <time>2013-03-03T11:20:52Z</time>
      </trkpt>
      <trkpt lat="45.18411" lon="4.61634">
        <ele>655.75659179688</ele>
        <time>2013-03-03T11:20:57Z</time>
      </trkpt>
      <trkpt lat="45.18401" lon="4.61687">
        <ele>656.23706054688</ele>
        <time>2013-03-03T11:21:06Z</time>
      </trkpt>
      <trkpt lat="45.18378" lon="4.61707">
        <ele>658.64038085938</ele>
        <time>2013-03-03T11:21:16Z</time>
      </trkpt>
      <trkpt lat="45.18362" lon="4.61751">
        <ele>661.04370117188</ele>
        <time>2013-03-03T11:21:30Z</time>
      </trkpt>
      <trkpt lat="45.1835" lon="4.61774">
        <ele>661.04370117188</ele>
        <time>2013-03-03T11:21:39Z</time>
      </trkpt>
      <trkpt lat="45.18348" lon="4.61777">
        <ele>661.04370117188</ele>
        <time>2013-03-03T11:21:41Z</time>
      </trkpt>
      <trkpt lat="45.18333" lon="4.61813">
        <ele>662.96630859375</ele>
        <time>2013-03-03T11:21:57Z</time>
      </trkpt>
      <trkpt lat="45.18329" lon="4.61848">
        <ele>664.88891601562</ele>
        <time>2013-03-03T11:22:11Z</time>
      </trkpt>
      <trkpt lat="45.18329" lon="4.6185">
        <ele>664.88891601562</ele>
        <time>2013-03-03T11:22:15Z</time>
      </trkpt>
      <trkpt lat="45.18329" lon="4.6185">
        <ele>664.88891601562</ele>
        <time>2013-03-03T11:22:25Z</time>
      </trkpt>
      <trkpt lat="45.18325" lon="4.619">
        <ele>664.408203125</ele>
        <time>2013-03-03T11:22:42Z</time>
      </trkpt>
      <trkpt lat="45.18329" lon="4.61945">
        <ele>664.88891601562</ele>
        <time>2013-03-03T11:22:58Z</time>
      </trkpt>
      <trkpt lat="45.18336" lon="4.62">
        <ele>665.85034179688</ele>
        <time>2013-03-03T11:23:17Z</time>
      </trkpt>
      <trkpt lat="45.1834" lon="4.61998">
        <ele>666.33081054688</ele>
        <time>2013-03-03T11:23:21Z</time>
      </trkpt>
      <trkpt lat="45.18346" lon="4.61989">
        <ele>668.25366210938</ele>
        <time>2013-03-03T11:23:27Z</time>
      </trkpt>
      <trkpt lat="45.18358" lon="4.61964">
        <ele>671.6181640625</ele>
        <time>2013-03-03T11:23:41Z</time>
      </trkpt>
      <trkpt lat="45.18367" lon="4.61945">
        <ele>673.541015625</ele>
        <time>2013-03-03T11:23:54Z</time>
      </trkpt>
      <trkpt lat="45.18383" lon="4.61918">
        <ele>676.4248046875</ele>
        <time>2013-03-03T11:24:13Z</time>
      </trkpt>
      <trkpt lat="45.18385" lon="4.61914">
        <ele>676.90551757812</ele>
        <time>2013-03-03T11:24:25Z</time>
      </trkpt>
      <trkpt lat="45.18394" lon="4.619">
        <ele>677.38623046875</ele>
        <time>2013-03-03T11:25:14Z</time>
      </trkpt>
      <trkpt lat="45.18415" lon="4.61879">
        <ele>680.75073242188</ele>
        <time>2013-03-03T11:25:33Z</time>
      </trkpt>
      <trkpt lat="45.1843" lon="4.61865">
        <ele>684.59619140625</ele>
        <time>2013-03-03T11:25:48Z</time>
      </trkpt>
      <trkpt lat="45.18444" lon="4.61854">
        <ele>688.44140625</ele>
        <time>2013-03-03T11:26:02Z</time>
      </trkpt>
      <trkpt lat="45.18455" lon="4.61844">
        <ele>691.3251953125</ele>
        <time>2013-03-03T11:26:13Z</time>
      </trkpt>
      <trkpt lat="45.18464" lon="4.61835">
        <ele>691.80590820312</ele>
        <time>2013-03-03T11:26:26Z</time>
      </trkpt>
      <trkpt lat="45.18464" lon="4.61835">
        <ele>693.24780273438</ele>
        <time>2013-03-03T11:26:42Z</time>
      </trkpt>
      <trkpt lat="45.18464" lon="4.61835">
        <ele>693.24780273438</ele>
        <time>2013-03-03T11:27:01Z</time>
      </trkpt>
      <trkpt lat="45.18464" lon="4.61835">
        <ele>693.728515625</ele>
        <time>2013-03-03T11:27:58Z</time>
      </trkpt>
      <trkpt lat="45.18464" lon="4.61835">
        <ele>693.728515625</ele>
        <time>2013-03-03T11:29:09Z</time>
      </trkpt>
      <trkpt lat="45.18464" lon="4.61835">
        <ele>693.728515625</ele>
        <time>2013-03-03T11:29:36Z</time>
      </trkpt>
      <trkpt lat="45.18464" lon="4.61835">
        <ele>693.728515625</ele>
        <time>2013-03-03T11:30:04Z</time>
      </trkpt>
      <trkpt lat="45.18479" lon="4.61825">
        <ele>695.17041015625</ele>
        <time>2013-03-03T11:30:09Z</time>
      </trkpt>
      <trkpt lat="45.18489" lon="4.61816">
        <ele>701.89990234375</ele>
        <time>2013-03-03T11:30:23Z</time>
      </trkpt>
      <trkpt lat="45.18501" lon="4.61803">
        <ele>705.26440429688</ele>
        <time>2013-03-03T11:30:34Z</time>
      </trkpt>
      <trkpt lat="45.18509" lon="4.61796">
        <ele>707.66772460938</ele>
        <time>2013-03-03T11:30:41Z</time>
      </trkpt>
      <trkpt lat="45.18517" lon="4.61787">
        <ele>711.0322265625</ele>
        <time>2013-03-03T11:30:54Z</time>
      </trkpt>
      <trkpt lat="45.18529" lon="4.61772">
        <ele>712.47412109375</ele>
        <time>2013-03-03T11:31:07Z</time>
      </trkpt>
      <trkpt lat="45.18529" lon="4.61772">
        <ele>713.435546875</ele>
        <time>2013-03-03T11:31:16Z</time>
      </trkpt>
      <trkpt lat="45.18547" lon="4.6175">
        <ele>713.916015625</ele>
        <time>2013-03-03T11:31:24Z</time>
      </trkpt>
      <trkpt lat="45.18555" lon="4.61739">
        <ele>715.35815429688</ele>
        <time>2013-03-03T11:31:33Z</time>
      </trkpt>
      <trkpt lat="45.18555" lon="4.61739">
        <ele>716.31958007812</ele>
        <time>2013-03-03T11:31:36Z</time>
      </trkpt>
      <trkpt lat="45.18555" lon="4.61739">
        <ele>717.28100585938</ele>
        <time>2013-03-03T11:31:43Z</time>
      </trkpt>
      <trkpt lat="45.18573" lon="4.61715">
        <ele>719.20361328125</ele>
        <time>2013-03-03T11:31:53Z</time>
      </trkpt>
      <trkpt lat="45.18584" lon="4.61704">
        <ele>720.6455078125</ele>
        <time>2013-03-03T11:32:02Z</time>
      </trkpt>
      <trkpt lat="45.1859" lon="4.61697">
        <ele>720.6455078125</ele>
        <time>2013-03-03T11:32:12Z</time>
      </trkpt>
      <trkpt lat="45.18603" lon="4.61683">
        <ele>721.12622070312</ele>
        <time>2013-03-03T11:32:23Z</time>
      </trkpt>
      <trkpt lat="45.18611" lon="4.61678">
        <ele>724.97143554688</ele>
        <time>2013-03-03T11:32:35Z</time>
      </trkpt>
      <trkpt lat="45.18636" lon="4.61664">
        <ele>726.41333007812</ele>
        <time>2013-03-03T11:32:49Z</time>
      </trkpt>
      <trkpt lat="45.18648" lon="4.61658">
        <ele>725.9326171875</ele>
        <time>2013-03-03T11:33:03Z</time>
      </trkpt>
      <trkpt lat="45.18676" lon="4.61653">
        <ele>727.85522460938</ele>
        <time>2013-03-03T11:33:20Z</time>
      </trkpt>
      <trkpt lat="45.1869" lon="4.61656">
        <ele>730.25854492188</ele>
        <time>2013-03-03T11:33:31Z</time>
      </trkpt>
      <trkpt lat="45.18708" lon="4.61661">
        <ele>732.18139648438</ele>
        <time>2013-03-03T11:33:46Z</time>
      </trkpt>
      <trkpt lat="45.1872" lon="4.61663">
        <ele>734.58471679688</ele>
        <time>2013-03-03T11:33:56Z</time>
      </trkpt>
      <trkpt lat="45.18733" lon="4.61668">
        <ele>737.94921875</ele>
        <time>2013-03-03T11:34:10Z</time>
      </trkpt>
      <trkpt lat="45.1875" lon="4.61677">
        <ele>739.87182617188</ele>
        <time>2013-03-03T11:34:22Z</time>
      </trkpt>
      <trkpt lat="45.18768" lon="4.61692">
        <ele>740.8330078125</ele>
        <time>2013-03-03T11:34:39Z</time>
      </trkpt>
      <trkpt lat="45.18791" lon="4.6171">
        <ele>743.236328125</ele>
        <time>2013-03-03T11:35:00Z</time>
      </trkpt>
      <trkpt lat="45.18811" lon="4.61718">
        <ele>743.71704101562</ele>
        <time>2013-03-03T11:35:16Z</time>
      </trkpt>
      <trkpt lat="45.18824" lon="4.61715">
        <ele>749.00439453125</ele>
        <time>2013-03-03T11:35:32Z</time>
      </trkpt>
      <trkpt lat="45.18824" lon="4.61715">
        <ele>748.52368164062</ele>
        <time>2013-03-03T11:35:33Z</time>
      </trkpt>
      <trkpt lat="45.18836" lon="4.61698">
        <ele>749.9658203125</ele>
        <time>2013-03-03T11:35:47Z</time>
      </trkpt>
      <trkpt lat="45.18842" lon="4.61679">
        <ele>752.849609375</ele>
        <time>2013-03-03T11:36:03Z</time>
      </trkpt>
      <trkpt lat="45.18842" lon="4.61679">
        <ele>755.73364257812</ele>
        <time>2013-03-03T11:36:15Z</time>
      </trkpt>
      <trkpt lat="45.18842" lon="4.61679">
        <ele>757.65625</ele>
        <time>2013-03-03T11:36:24Z</time>
      </trkpt>
      <trkpt lat="45.18851" lon="4.61631">
        <ele>761.50146484375</ele>
        <time>2013-03-03T11:36:40Z</time>
      </trkpt>
      <trkpt lat="45.18851" lon="4.61631">
        <ele>766.30810546875</ele>
        <time>2013-03-03T11:36:53Z</time>
      </trkpt>
      <trkpt lat="45.18865" lon="4.61578">
        <ele>767.26953125</ele>
        <time>2013-03-03T11:37:01Z</time>
      </trkpt>
      <trkpt lat="45.18865" lon="4.61578">
        <ele>768.23071289062</ele>
        <time>2013-03-03T11:37:04Z</time>
      </trkpt>
      <trkpt lat="45.18865" lon="4.61578">
        <ele>769.6728515625</ele>
        <time>2013-03-03T11:37:12Z</time>
      </trkpt>
      <trkpt lat="45.18865" lon="4.61578">
        <ele>769.6728515625</ele>
        <time>2013-03-03T11:37:15Z</time>
      </trkpt>
      <trkpt lat="45.18865" lon="4.61578">
        <ele>770.63403320312</ele>
        <time>2013-03-03T11:37:19Z</time>
      </trkpt>
      <trkpt lat="45.18865" lon="4.61578">
        <ele>773.03735351562</ele>
        <time>2013-03-03T11:37:38Z</time>
      </trkpt>
      <trkpt lat="45.18865" lon="4.61578">
        <ele>774.9599609375</ele>
        <time>2013-03-03T11:37:59Z</time>
      </trkpt>
      <trkpt lat="45.18865" lon="4.61578">
        <ele>775.4404296875</ele>
        <time>2013-03-03T11:38:06Z</time>
      </trkpt>
      <trkpt lat="45.18865" lon="4.61578">
        <ele>774.47924804688</ele>
        <time>2013-03-03T11:38:19Z</time>
      </trkpt>
      <trkpt lat="45.18865" lon="4.61578">
        <ele>774.47924804688</ele>
        <time>2013-03-03T11:38:44Z</time>
      </trkpt>
      <trkpt lat="45.18865" lon="4.61578">
        <ele>773.51806640625</ele>
        <time>2013-03-03T11:39:01Z</time>
      </trkpt>
      <trkpt lat="45.18865" lon="4.61578">
        <ele>773.51806640625</ele>
        <time>2013-03-03T11:39:25Z</time>
      </trkpt>
      <trkpt lat="45.18903" lon="4.61494">
        <ele>773.51806640625</ele>
        <time>2013-03-03T11:40:01Z</time>
      </trkpt>
      <trkpt lat="45.18917" lon="4.61546">
        <ele>773.03735351562</ele>
        <time>2013-03-03T11:40:14Z</time>
      </trkpt>
      <trkpt lat="45.18924" lon="4.61566">
        <ele>773.51806640625</ele>
        <time>2013-03-03T11:40:19Z</time>
      </trkpt>
      <trkpt lat="45.18932" lon="4.61583">
        <ele>772.07592773438</ele>
        <time>2013-03-03T11:40:24Z</time>
      </trkpt>
      <trkpt lat="45.18947" lon="4.6161">
        <ele>773.99853515625</ele>
        <time>2013-03-03T11:40:34Z</time>
      </trkpt>
      <trkpt lat="45.18952" lon="4.61618">
        <ele>774.47924804688</ele>
        <time>2013-03-03T11:40:37Z</time>
      </trkpt>
      <trkpt lat="45.18965" lon="4.6164">
        <ele>776.88256835938</ele>
        <time>2013-03-03T11:40:46Z</time>
      </trkpt>
      <trkpt lat="45.1898" lon="4.61667">
        <ele>779.28564453125</ele>
        <time>2013-03-03T11:40:57Z</time>
      </trkpt>
      <trkpt lat="45.18998" lon="4.61701">
        <ele>781.20874023438</ele>
        <time>2013-03-03T11:41:13Z</time>
      </trkpt>
      <trkpt lat="45.19004" lon="4.61715">
        <ele>782.65063476562</ele>
        <time>2013-03-03T11:41:21Z</time>
      </trkpt>
      <trkpt lat="45.19002" lon="4.61749">
        <ele>787.45703125</ele>
        <time>2013-03-03T11:41:31Z</time>
      </trkpt>
      <trkpt lat="45.19003" lon="4.6176">
        <ele>787.93774414062</ele>
        <time>2013-03-03T11:41:33Z</time>
      </trkpt>
      <trkpt lat="45.18997" lon="4.61805">
        <ele>786.01513671875</ele>
        <time>2013-03-03T11:41:38Z</time>
      </trkpt>
      <trkpt lat="45.18991" lon="4.61839">
        <ele>783.61181640625</ele>
        <time>2013-03-03T11:41:42Z</time>
      </trkpt>
      <trkpt lat="45.18986" lon="4.61882">
        <ele>783.13110351562</ele>
        <time>2013-03-03T11:41:48Z</time>
      </trkpt>
      <trkpt lat="45.18993" lon="4.61944">
        <ele>785.05395507812</ele>
        <time>2013-03-03T11:41:56Z</time>
      </trkpt>
      <trkpt lat="45.18994" lon="4.61952">
        <ele>785.53442382812</ele>
        <time>2013-03-03T11:41:57Z</time>
      </trkpt>
      <trkpt lat="45.19005" lon="4.61959">
        <ele>784.5732421875</ele>
        <time>2013-03-03T11:42:02Z</time>
      </trkpt>
      <trkpt lat="45.19016" lon="4.61942">
        <ele>785.05395507812</ele>
        <time>2013-03-03T11:42:09Z</time>
      </trkpt>
      <trkpt lat="45.19027" lon="4.61932">
        <ele>783.13110351562</ele>
        <time>2013-03-03T11:42:17Z</time>
      </trkpt>
      <trkpt lat="45.19044" lon="4.61921">
        <ele>784.09252929688</ele>
        <time>2013-03-03T11:42:23Z</time>
      </trkpt>
      <trkpt lat="45.19072" lon="4.61905">
        <ele>781.68920898438</ele>
        <time>2013-03-03T11:42:33Z</time>
      </trkpt>
      <trkpt lat="45.19081" lon="4.61899">
        <ele>781.20874023438</ele>
        <time>2013-03-03T11:42:37Z</time>
      </trkpt>
      <trkpt lat="45.19114" lon="4.61878">
        <ele>772.556640625</ele>
        <time>2013-03-03T11:42:46Z</time>
      </trkpt>
      <trkpt lat="45.19116" lon="4.61875">
        <ele>772.07592773438</ele>
        <time>2013-03-03T11:42:55Z</time>
      </trkpt>
      <trkpt lat="45.19121" lon="4.61865">
        <ele>773.03735351562</ele>
        <time>2013-03-03T11:46:16Z</time>
      </trkpt>
      <trkpt lat="45.19128" lon="4.6184">
        <ele>775.92114257812</ele>
        <time>2013-03-03T11:46:22Z</time>
      </trkpt>
      <trkpt lat="45.19136" lon="4.61799">
        <ele>774.9599609375</ele>
        <time>2013-03-03T11:46:29Z</time>
      </trkpt>
      <trkpt lat="45.19137" lon="4.61792">
        <ele>773.03735351562</ele>
        <time>2013-03-03T11:46:30Z</time>
      </trkpt>
      <trkpt lat="45.19142" lon="4.61741">
        <ele>768.23071289062</ele>
        <time>2013-03-03T11:46:37Z</time>
      </trkpt>
      <trkpt lat="45.19142" lon="4.61674">
        <ele>760.05932617188</ele>
        <time>2013-03-03T11:46:46Z</time>
      </trkpt>
      <trkpt lat="45.19142" lon="4.61644">
        <ele>758.61743164062</ele>
        <time>2013-03-03T11:46:51Z</time>
      </trkpt>
      <trkpt lat="45.1915" lon="4.61599">
        <ele>763.90454101562</ele>
        <time>2013-03-03T11:47:02Z</time>
      </trkpt>
      <trkpt lat="45.19174" lon="4.61568">
        <ele>769.6728515625</ele>
        <time>2013-03-03T11:47:13Z</time>
      </trkpt>
      <trkpt lat="45.19201" lon="4.61556">
        <ele>777.84375</ele>
        <time>2013-03-03T11:47:27Z</time>
      </trkpt>
      <trkpt lat="45.19207" lon="4.61554">
        <ele>778.80517578125</ele>
        <time>2013-03-03T11:47:30Z</time>
      </trkpt>
      <trkpt lat="45.19228" lon="4.61551">
        <ele>782.169921875</ele>
        <time>2013-03-03T11:47:40Z</time>
      </trkpt>
      <trkpt lat="45.19246" lon="4.61552">
        <ele>785.05395507812</ele>
        <time>2013-03-03T11:47:49Z</time>
      </trkpt>
      <trkpt lat="45.19254" lon="4.61552">
        <ele>785.05395507812</ele>
        <time>2013-03-03T11:47:53Z</time>
      </trkpt>
      <trkpt lat="45.19272" lon="4.61552">
        <ele>787.45703125</ele>
        <time>2013-03-03T11:48:00Z</time>
      </trkpt>
      <trkpt lat="45.19308" lon="4.61555">
        <ele>785.05395507812</ele>
        <time>2013-03-03T11:48:08Z</time>
      </trkpt>
      <trkpt lat="45.19352" lon="4.61563">
        <ele>780.72802734375</ele>
        <time>2013-03-03T11:48:17Z</time>
      </trkpt>
      <trkpt lat="45.19403" lon="4.61571">
        <ele>773.51806640625</ele>
        <time>2013-03-03T11:48:26Z</time>
      </trkpt>
      <trkpt lat="45.19403" lon="4.61571">
        <ele>772.556640625</ele>
        <time>2013-03-03T11:48:30Z</time>
      </trkpt>
      <trkpt lat="45.19403" lon="4.61571">
        <ele>772.07592773438</ele>
        <time>2013-03-03T11:48:46Z</time>
      </trkpt>
      <trkpt lat="45.19403" lon="4.61571">
        <ele>772.07592773438</ele>
        <time>2013-03-03T11:49:29Z</time>
      </trkpt>
      <trkpt lat="45.19417" lon="4.61573">
        <ele>771.11474609375</ele>
        <time>2013-03-03T11:49:59Z</time>
      </trkpt>
      <trkpt lat="45.19452" lon="4.61579">
        <ele>769.6728515625</ele>
        <time>2013-03-03T11:50:10Z</time>
      </trkpt>
      <trkpt lat="45.1946" lon="4.61578">
        <ele>769.19213867188</ele>
        <time>2013-03-03T11:50:12Z</time>
      </trkpt>
      <trkpt lat="45.19486" lon="4.61564">
        <ele>767.26953125</ele>
        <time>2013-03-03T11:50:19Z</time>
      </trkpt>
      <trkpt lat="45.19507" lon="4.61525">
        <ele>765.34692382812</ele>
        <time>2013-03-03T11:50:29Z</time>
      </trkpt>
      <trkpt lat="45.19513" lon="4.61504">
        <ele>765.82763671875</ele>
        <time>2013-03-03T11:50:36Z</time>
      </trkpt>
      <trkpt lat="45.19515" lon="4.61451">
        <ele>765.82763671875</ele>
        <time>2013-03-03T11:50:54Z</time>
      </trkpt>
      <trkpt lat="45.19509" lon="4.61422">
        <ele>765.82763671875</ele>
        <time>2013-03-03T11:51:07Z</time>
      </trkpt>
      <trkpt lat="45.19501" lon="4.61387">
        <ele>766.30810546875</ele>
        <time>2013-03-03T11:51:24Z</time>
      </trkpt>
      <trkpt lat="45.1949" lon="4.61342">
        <ele>767.75</ele>
        <time>2013-03-03T11:51:42Z</time>
      </trkpt>
      <trkpt lat="45.19482" lon="4.61305">
        <ele>768.23071289062</ele>
        <time>2013-03-03T11:51:56Z</time>
      </trkpt>
      <trkpt lat="45.1948" lon="4.61262">
        <ele>771.11474609375</ele>
        <time>2013-03-03T11:52:14Z</time>
      </trkpt>
      <trkpt lat="45.19477" lon="4.61242">
        <ele>773.03735351562</ele>
        <time>2013-03-03T11:52:24Z</time>
      </trkpt>
      <trkpt lat="45.1948" lon="4.61198">
        <ele>776.40185546875</ele>
        <time>2013-03-03T11:52:44Z</time>
      </trkpt>
      <trkpt lat="45.19502" lon="4.61181">
        <ele>779.28564453125</ele>
        <time>2013-03-03T11:52:59Z</time>
      </trkpt>
      <trkpt lat="45.19539" lon="4.61177">
        <ele>783.13110351562</ele>
        <time>2013-03-03T11:53:19Z</time>
      </trkpt>
      <trkpt lat="45.1957" lon="4.61178">
        <ele>786.01513671875</ele>
        <time>2013-03-03T11:53:34Z</time>
      </trkpt>
      <trkpt lat="45.19596" lon="4.61177">
        <ele>787.93774414062</ele>
        <time>2013-03-03T11:53:47Z</time>
      </trkpt>
      <trkpt lat="45.19596" lon="4.61177">
        <ele>788.89916992188</ele>
        <time>2013-03-03T11:53:56Z</time>
      </trkpt>
      <trkpt lat="45.19596" lon="4.61177">
        <ele>788.89916992188</ele>
        <time>2013-03-03T11:54:55Z</time>
      </trkpt>
      <trkpt lat="45.19618" lon="4.61165">
        <ele>788.41845703125</ele>
        <time>2013-03-03T11:55:06Z</time>
      </trkpt>
      <trkpt lat="45.19642" lon="4.61149">
        <ele>790.34106445312</ele>
        <time>2013-03-03T11:55:20Z</time>
      </trkpt>
      <trkpt lat="45.19668" lon="4.61124">
        <ele>790.82153320312</ele>
        <time>2013-03-03T11:55:38Z</time>
      </trkpt>
      <trkpt lat="45.19689" lon="4.61099">
        <ele>791.78295898438</ele>
        <time>2013-03-03T11:55:53Z</time>
      </trkpt>
      <trkpt lat="45.19696" lon="4.61056">
        <ele>792.74438476562</ele>
        <time>2013-03-03T11:56:09Z</time>
      </trkpt>
      <trkpt lat="45.19694" lon="4.61006">
        <ele>792.263671875</ele>
        <time>2013-03-03T11:56:28Z</time>
      </trkpt>
      <trkpt lat="45.1969" lon="4.60976">
        <ele>792.74438476562</ele>
        <time>2013-03-03T11:56:40Z</time>
      </trkpt>
      <trkpt lat="45.19678" lon="4.60945">
        <ele>793.70556640625</ele>
        <time>2013-03-03T11:56:56Z</time>
      </trkpt>
      <trkpt lat="45.19668" lon="4.60931">
        <ele>794.18627929688</ele>
        <time>2013-03-03T11:57:07Z</time>
      </trkpt>
      <trkpt lat="45.19666" lon="4.60928">
        <ele>795.1474609375</ele>
        <time>2013-03-03T11:57:20Z</time>
      </trkpt>
      <trkpt lat="45.19658" lon="4.60916">
        <ele>795.1474609375</ele>
        <time>2013-03-03T11:57:26Z</time>
      </trkpt>
      <trkpt lat="45.19642" lon="4.60882">
        <ele>796.10913085938</ele>
        <time>2013-03-03T11:57:46Z</time>
      </trkpt>
      <trkpt lat="45.19632" lon="4.60859">
        <ele>796.58984375</ele>
        <time>2013-03-03T11:58:04Z</time>
      </trkpt>
      <trkpt lat="45.19624" lon="4.60827">
        <ele>797.55102539062</ele>
        <time>2013-03-03T11:58:21Z</time>
      </trkpt>
      <trkpt lat="45.19623" lon="4.60824">
        <ele>797.55102539062</ele>
        <time>2013-03-03T11:58:23Z</time>
      </trkpt>
      <trkpt lat="45.19619" lon="4.60795">
        <ele>797.0703125</ele>
        <time>2013-03-03T11:58:37Z</time>
      </trkpt>
      <trkpt lat="45.19618" lon="4.60755">
        <ele>798.51220703125</ele>
        <time>2013-03-03T11:58:52Z</time>
      </trkpt>
      <trkpt lat="45.1962" lon="4.60719">
        <ele>800.43505859375</ele>
        <time>2013-03-03T11:59:05Z</time>
      </trkpt>
      <trkpt lat="45.19634" lon="4.60692">
        <ele>800.91552734375</ele>
        <time>2013-03-03T11:59:19Z</time>
      </trkpt>
      <trkpt lat="45.19664" lon="4.6066">
        <ele>807.1640625</ele>
        <time>2013-03-03T11:59:39Z</time>
      </trkpt>
      <trkpt lat="45.19694" lon="4.60629">
        <ele>810.52856445312</ele>
        <time>2013-03-03T11:59:58Z</time>
      </trkpt>
      <trkpt lat="45.19715" lon="4.60609">
        <ele>812.45141601562</ele>
        <time>2013-03-03T12:00:12Z</time>
      </trkpt>
      <trkpt lat="45.19728" lon="4.60599">
        <ele>813.41284179688</ele>
        <time>2013-03-03T12:00:22Z</time>
      </trkpt>
      <trkpt lat="45.1974" lon="4.60591">
        <ele>813.41284179688</ele>
        <time>2013-03-03T12:00:30Z</time>
      </trkpt>
      <trkpt lat="45.1977" lon="4.60578">
        <ele>813.41284179688</ele>
        <time>2013-03-03T12:00:41Z</time>
      </trkpt>
      <trkpt lat="45.19794" lon="4.60569">
        <ele>814.3740234375</ele>
        <time>2013-03-03T12:00:47Z</time>
      </trkpt>
      <trkpt lat="45.19813" lon="4.60562">
        <ele>814.3740234375</ele>
        <time>2013-03-03T12:00:51Z</time>
      </trkpt>
      <trkpt lat="45.19832" lon="4.60561">
        <ele>814.85473632812</ele>
        <time>2013-03-03T12:00:54Z</time>
      </trkpt>
      <trkpt lat="45.1991" lon="4.60573">
        <ele>813.41284179688</ele>
        <time>2013-03-03T12:01:06Z</time>
      </trkpt>
      <trkpt lat="45.19916" lon="4.60575">
        <ele>812.93212890625</ele>
        <time>2013-03-03T12:01:07Z</time>
      </trkpt>
      <trkpt lat="45.19962" lon="4.60587">
        <ele>813.41284179688</ele>
        <time>2013-03-03T12:01:15Z</time>
      </trkpt>
      <trkpt lat="45.2001" lon="4.60601">
        <ele>816.29663085938</ele>
        <time>2013-03-03T12:01:26Z</time>
      </trkpt>
      <trkpt lat="45.20032" lon="4.60608">
        <ele>823.50659179688</ele>
        <time>2013-03-03T12:01:32Z</time>
      </trkpt>
      <trkpt lat="45.2003" lon="4.60624">
        <ele>820.14184570312</ele>
        <time>2013-03-03T12:01:40Z</time>
      </trkpt>
      <trkpt lat="45.2003" lon="4.60624">
        <ele>821.58374023438</ele>
        <time>2013-03-03T12:01:54Z</time>
      </trkpt>
      <trkpt lat="45.2003" lon="4.60624">
        <ele>821.58374023438</ele>
        <time>2013-03-03T12:05:58Z</time>
      </trkpt>
      <trkpt lat="45.20033" lon="4.60624">
        <ele>822.064453125</ele>
        <time>2013-03-03T12:06:00Z</time>
      </trkpt>
      <trkpt lat="45.20039" lon="4.60624">
        <ele>823.50659179688</ele>
        <time>2013-03-03T12:06:09Z</time>
      </trkpt>
      <trkpt lat="45.20039" lon="4.60624">
        <ele>823.02587890625</ele>
        <time>2013-03-03T12:06:10Z</time>
      </trkpt>
      <trkpt lat="45.20051" lon="4.60624">
        <ele>823.02587890625</ele>
        <time>2013-03-03T12:06:12Z</time>
      </trkpt>
      <trkpt lat="45.20051" lon="4.60624">
        <ele>821.58374023438</ele>
        <time>2013-03-03T12:06:15Z</time>
      </trkpt>
      <trkpt lat="45.20051" lon="4.60624">
        <ele>821.10327148438</ele>
        <time>2013-03-03T12:06:25Z</time>
      </trkpt>
      <trkpt lat="45.20051" lon="4.60624">
        <ele>820.62255859375</ele>
        <time>2013-03-03T12:06:53Z</time>
      </trkpt>
      <trkpt lat="45.20051" lon="4.60624">
        <ele>819.1806640625</ele>
        <time>2013-03-03T12:21:36Z</time>
      </trkpt>
      <trkpt lat="45.20051" lon="4.60624">
        <ele>817.73852539062</ele>
        <time>2013-03-03T12:21:40Z</time>
      </trkpt>
      <trkpt lat="45.20029" lon="4.60607">
        <ele>814.85473632812</ele>
        <time>2013-03-03T12:21:52Z</time>
      </trkpt>
      <trkpt lat="45.20013" lon="4.60601">
        <ele>812.93212890625</ele>
        <time>2013-03-03T12:21:55Z</time>
      </trkpt>
      <trkpt lat="45.19971" lon="4.60589">
        <ele>809.08666992188</ele>
        <time>2013-03-03T12:22:00Z</time>
      </trkpt>
      <trkpt lat="45.19914" lon="4.60637">
        <ele>804.2802734375</ele>
        <time>2013-03-03T12:22:06Z</time>
      </trkpt>
      <trkpt lat="45.19903" lon="4.6064">
        <ele>802.83813476562</ele>
        <time>2013-03-03T12:22:08Z</time>
      </trkpt>
      <trkpt lat="45.19908" lon="4.60665">
        <ele>798.03173828125</ele>
        <time>2013-03-03T12:22:13Z</time>
      </trkpt>
      <trkpt lat="45.19928" lon="4.6068">
        <ele>794.18627929688</ele>
        <time>2013-03-03T12:22:17Z</time>
      </trkpt>
      <trkpt lat="45.1994" lon="4.60696">
        <ele>790.34106445312</ele>
        <time>2013-03-03T12:22:23Z</time>
      </trkpt>
      <trkpt lat="45.1994" lon="4.60696">
        <ele>789.8603515625</ele>
        <time>2013-03-03T12:22:48Z</time>
      </trkpt>
      <trkpt lat="45.1994" lon="4.60696">
        <ele>786.01513671875</ele>
        <time>2013-03-03T12:22:58Z</time>
      </trkpt>
      <trkpt lat="45.1994" lon="4.60696">
        <ele>786.01513671875</ele>
        <time>2013-03-03T12:23:53Z</time>
      </trkpt>
      <trkpt lat="45.19919" lon="4.60713">
        <ele>782.65063476562</ele>
        <time>2013-03-03T12:24:01Z</time>
      </trkpt>
      <trkpt lat="45.19914" lon="4.60713">
        <ele>782.169921875</ele>
        <time>2013-03-03T12:24:02Z</time>
      </trkpt>
      <trkpt lat="45.19884" lon="4.60713">
        <ele>779.76635742188</ele>
        <time>2013-03-03T12:24:07Z</time>
      </trkpt>
      <trkpt lat="45.19866" lon="4.60718">
        <ele>777.36328125</ele>
        <time>2013-03-03T12:24:11Z</time>
      </trkpt>
      <trkpt lat="45.19863" lon="4.60719">
        <ele>774.47924804688</ele>
        <time>2013-03-03T12:24:15Z</time>
      </trkpt>
      <trkpt lat="45.19882" lon="4.60733">
        <ele>770.1533203125</ele>
        <time>2013-03-03T12:24:21Z</time>
      </trkpt>
      <trkpt lat="45.1992" lon="4.60755">
        <ele>764.8662109375</ele>
        <time>2013-03-03T12:24:30Z</time>
      </trkpt>
      <trkpt lat="45.19938" lon="4.6076">
        <ele>762.943359375</ele>
        <time>2013-03-03T12:24:34Z</time>
      </trkpt>
      <trkpt lat="45.1996" lon="4.60775">
        <ele>761.50146484375</ele>
        <time>2013-03-03T12:24:38Z</time>
      </trkpt>
      <trkpt lat="45.19989" lon="4.60797">
        <ele>767.26953125</ele>
        <time>2013-03-03T12:24:50Z</time>
      </trkpt>
      <trkpt lat="45.20012" lon="4.60807">
        <ele>767.75</ele>
        <time>2013-03-03T12:25:03Z</time>
      </trkpt>
      <trkpt lat="45.20018" lon="4.60808">
        <ele>765.34692382812</ele>
        <time>2013-03-03T12:25:15Z</time>
      </trkpt>
      <trkpt lat="45.20018" lon="4.60808">
        <ele>767.26953125</ele>
        <time>2013-03-03T12:25:21Z</time>
      </trkpt>
      <trkpt lat="45.20043" lon="4.60808">
        <ele>768.71142578125</ele>
        <time>2013-03-03T12:25:30Z</time>
      </trkpt>
      <trkpt lat="45.20046" lon="4.60808">
        <ele>769.6728515625</ele>
        <time>2013-03-03T12:25:33Z</time>
      </trkpt>
      <trkpt lat="45.2007" lon="4.60803">
        <ele>771.11474609375</ele>
        <time>2013-03-03T12:25:49Z</time>
      </trkpt>
      <trkpt lat="45.20094" lon="4.60835">
        <ele>770.63403320312</ele>
        <time>2013-03-03T12:25:59Z</time>
      </trkpt>
      <trkpt lat="45.20111" lon="4.60863">
        <ele>771.11474609375</ele>
        <time>2013-03-03T12:26:14Z</time>
      </trkpt>
      <trkpt lat="45.20124" lon="4.60881">
        <ele>775.4404296875</ele>
        <time>2013-03-03T12:26:27Z</time>
      </trkpt>
      <trkpt lat="45.20129" lon="4.60888">
        <ele>776.88256835938</ele>
        <time>2013-03-03T12:26:35Z</time>
      </trkpt>
      <trkpt lat="45.2014" lon="4.60906">
        <ele>779.28564453125</ele>
        <time>2013-03-03T12:26:50Z</time>
      </trkpt>
      <trkpt lat="45.20151" lon="4.60923">
        <ele>778.80517578125</ele>
        <time>2013-03-03T12:27:03Z</time>
      </trkpt>
      <trkpt lat="45.20151" lon="4.60923">
        <ele>777.84375</ele>
        <time>2013-03-03T12:27:16Z</time>
      </trkpt>
      <trkpt lat="45.20151" lon="4.60923">
        <ele>777.36328125</ele>
        <time>2013-03-03T12:28:29Z</time>
      </trkpt>
      <trkpt lat="45.20166" lon="4.60952">
        <ele>774.47924804688</ele>
        <time>2013-03-03T12:28:37Z</time>
      </trkpt>
      <trkpt lat="45.2019" lon="4.60998">
        <ele>771.11474609375</ele>
        <time>2013-03-03T12:28:44Z</time>
      </trkpt>
      <trkpt lat="45.20199" lon="4.61014">
        <ele>770.1533203125</ele>
        <time>2013-03-03T12:28:46Z</time>
      </trkpt>
      <trkpt lat="45.20226" lon="4.61088">
        <ele>765.82763671875</ele>
        <time>2013-03-03T12:28:54Z</time>
      </trkpt>
      <trkpt lat="45.20247" lon="4.61165">
        <ele>763.90454101562</ele>
        <time>2013-03-03T12:29:03Z</time>
      </trkpt>
      <trkpt lat="45.20249" lon="4.61172">
        <ele>763.90454101562</ele>
        <time>2013-03-03T12:29:04Z</time>
      </trkpt>
      <trkpt lat="45.20257" lon="4.61193">
        <ele>762.46264648438</ele>
        <time>2013-03-03T12:29:07Z</time>
      </trkpt>
      <trkpt lat="45.20266" lon="4.61217">
        <ele>761.02075195312</ele>
        <time>2013-03-03T12:29:10Z</time>
      </trkpt>
      <trkpt lat="45.20282" lon="4.61259">
        <ele>756.69482421875</ele>
        <time>2013-03-03T12:29:16Z</time>
      </trkpt>
      <trkpt lat="45.20294" lon="4.61281">
        <ele>755.2529296875</ele>
        <time>2013-03-03T12:29:19Z</time>
      </trkpt>
      <trkpt lat="45.20307" lon="4.61302">
        <ele>753.33032226562</ele>
        <time>2013-03-03T12:29:22Z</time>
      </trkpt>
      <trkpt lat="45.20321" lon="4.6132">
        <ele>750.44653320312</ele>
        <time>2013-03-03T12:29:25Z</time>
      </trkpt>
      <trkpt lat="45.20353" lon="4.61355">
        <ele>746.60107421875</ele>
        <time>2013-03-03T12:29:32Z</time>
      </trkpt>
      <trkpt lat="45.20358" lon="4.61359">
        <ele>746.12036132812</ele>
        <time>2013-03-03T12:29:33Z</time>
      </trkpt>
      <trkpt lat="45.2041" lon="4.6139">
        <ele>743.236328125</ele>
        <time>2013-03-03T12:29:42Z</time>
      </trkpt>
      <trkpt lat="45.2043" lon="4.61401">
        <ele>741.79443359375</ele>
        <time>2013-03-03T12:29:45Z</time>
      </trkpt>
      <trkpt lat="45.20454" lon="4.61415">
        <ele>740.3525390625</ele>
        <time>2013-03-03T12:29:49Z</time>
      </trkpt>
      <trkpt lat="45.20499" lon="4.61439">
        <ele>736.98779296875</ele>
        <time>2013-03-03T12:29:55Z</time>
      </trkpt>
      <trkpt lat="45.20512" lon="4.61455">
        <ele>735.5458984375</ele>
        <time>2013-03-03T12:29:57Z</time>
      </trkpt>
      <trkpt lat="45.20535" lon="4.61484">
        <ele>732.662109375</ele>
        <time>2013-03-03T12:30:03Z</time>
      </trkpt>
      <trkpt lat="45.20535" lon="4.61484">
        <ele>731.21997070312</ele>
        <time>2013-03-03T12:30:10Z</time>
      </trkpt>
      <trkpt lat="45.20535" lon="4.61484">
        <ele>731.70043945312</ele>
        <time>2013-03-03T12:30:22Z</time>
      </trkpt>
      <trkpt lat="45.20535" lon="4.61484">
        <ele>731.70043945312</ele>
        <time>2013-03-03T12:30:28Z</time>
      </trkpt>
      <trkpt lat="45.20553" lon="4.61486">
        <ele>730.25854492188</ele>
        <time>2013-03-03T12:30:34Z</time>
      </trkpt>
      <trkpt lat="45.20575" lon="4.61455">
        <ele>726.41333007812</ele>
        <time>2013-03-03T12:30:39Z</time>
      </trkpt>
      <trkpt lat="45.20603" lon="4.61415">
        <ele>722.08740234375</ele>
        <time>2013-03-03T12:30:45Z</time>
      </trkpt>
      <trkpt lat="45.20608" lon="4.61425">
        <ele>724.01000976562</ele>
        <time>2013-03-03T12:30:48Z</time>
      </trkpt>
      <trkpt lat="45.20611" lon="4.61429">
        <ele>724.01000976562</ele>
        <time>2013-03-03T12:30:50Z</time>
      </trkpt>
      <trkpt lat="45.20625" lon="4.6145">
        <ele>723.52954101562</ele>
        <time>2013-03-03T12:30:54Z</time>
      </trkpt>
      <trkpt lat="45.20639" lon="4.61475">
        <ele>723.048828125</ele>
        <time>2013-03-03T12:30:57Z</time>
      </trkpt>
      <trkpt lat="45.20658" lon="4.61504">
        <ele>721.60668945312</ele>
        <time>2013-03-03T12:31:00Z</time>
      </trkpt>
      <trkpt lat="45.20695" lon="4.61558">
        <ele>719.20361328125</ele>
        <time>2013-03-03T12:31:06Z</time>
      </trkpt>
      <trkpt lat="45.20711" lon="4.61578">
        <ele>718.72290039062</ele>
        <time>2013-03-03T12:31:10Z</time>
      </trkpt>
      <trkpt lat="45.2072" lon="4.61588">
        <ele>718.2421875</ele>
        <time>2013-03-03T12:31:12Z</time>
      </trkpt>
      <trkpt lat="45.20746" lon="4.61608">
        <ele>717.28100585938</ele>
        <time>2013-03-03T12:31:15Z</time>
      </trkpt>
      <trkpt lat="45.20772" lon="4.61654">
        <ele>716.80029296875</ele>
        <time>2013-03-03T12:31:20Z</time>
      </trkpt>
      <trkpt lat="45.20808" lon="4.61746">
        <ele>713.435546875</ele>
        <time>2013-03-03T12:31:26Z</time>
      </trkpt>
      <trkpt lat="45.20835" lon="4.61801">
        <ele>711.51293945312</ele>
        <time>2013-03-03T12:31:30Z</time>
      </trkpt>
      <trkpt lat="45.20836" lon="4.61823">
        <ele>712.47412109375</ele>
        <time>2013-03-03T12:31:32Z</time>
      </trkpt>
      <trkpt lat="45.20835" lon="4.61891">
        <ele>713.916015625</ele>
        <time>2013-03-03T12:31:40Z</time>
      </trkpt>
      <trkpt lat="45.20834" lon="4.61916">
        <ele>686.51879882812</ele>
        <time>2013-03-03T12:31:51Z</time>
      </trkpt>
      <trkpt lat="45.20837" lon="4.61935">
        <ele>685.55737304688</ele>
        <time>2013-03-03T12:31:55Z</time>
      </trkpt>
      <trkpt lat="45.20839" lon="4.61946">
        <ele>686.99926757812</ele>
        <time>2013-03-03T12:31:58Z</time>
      </trkpt>
      <trkpt lat="45.2084" lon="4.61959">
        <ele>687.47998046875</ele>
        <time>2013-03-03T12:32:02Z</time>
      </trkpt>
      <trkpt lat="45.20845" lon="4.61999">
        <ele>687.47998046875</ele>
        <time>2013-03-03T12:32:11Z</time>
      </trkpt>
      <trkpt lat="45.20846" lon="4.62008">
        <ele>688.44140625</ele>
        <time>2013-03-03T12:32:13Z</time>
      </trkpt>
      <trkpt lat="45.20847" lon="4.62038">
        <ele>688.44140625</ele>
        <time>2013-03-03T12:32:20Z</time>
      </trkpt>
      <trkpt lat="45.20847" lon="4.62052">
        <ele>687.47998046875</ele>
        <time>2013-03-03T12:32:23Z</time>
      </trkpt>
      <trkpt lat="45.20846" lon="4.62071">
        <ele>686.0380859375</ele>
        <time>2013-03-03T12:32:26Z</time>
      </trkpt>
      <trkpt lat="45.20923" lon="4.62151">
        <ele>674.021484375</ele>
        <time>2013-03-03T12:32:34Z</time>
      </trkpt>
      <trkpt lat="45.20977" lon="4.62178">
        <ele>671.6181640625</ele>
        <time>2013-03-03T12:32:38Z</time>
      </trkpt>
      <trkpt lat="45.20985" lon="4.6222">
        <ele>667.77270507812</ele>
        <time>2013-03-03T12:32:41Z</time>
      </trkpt>
      <trkpt lat="45.20997" lon="4.62271">
        <ele>662.00512695312</ele>
        <time>2013-03-03T12:32:46Z</time>
      </trkpt>
      <trkpt lat="45.21008" lon="4.62319">
        <ele>653.833984375</ele>
        <time>2013-03-03T12:32:52Z</time>
      </trkpt>
      <trkpt lat="45.20998" lon="4.62359">
        <ele>642.77880859375</ele>
        <time>2013-03-03T12:32:56Z</time>
      </trkpt>
      <trkpt lat="45.21001" lon="4.62365">
        <ele>636.04956054688</ele>
        <time>2013-03-03T12:32:57Z</time>
      </trkpt>
      <trkpt lat="45.21013" lon="4.62383">
        <ele>632.2041015625</ele>
        <time>2013-03-03T12:32:59Z</time>
      </trkpt>
      <trkpt lat="45.21031" lon="4.62404">
        <ele>624.99438476562</ele>
        <time>2013-03-03T12:33:05Z</time>
      </trkpt>
      <trkpt lat="45.21031" lon="4.62404">
        <ele>623.07177734375</ele>
        <time>2013-03-03T12:33:07Z</time>
      </trkpt>
      <trkpt lat="45.21049" lon="4.62467">
        <ele>619.70703125</ele>
        <time>2013-03-03T12:33:17Z</time>
      </trkpt>
      <trkpt lat="45.21053" lon="4.62481">
        <ele>618.74560546875</ele>
        <time>2013-03-03T12:33:19Z</time>
      </trkpt>
      <trkpt lat="45.2107" lon="4.62562">
        <ele>612.0166015625</ele>
        <time>2013-03-03T12:33:28Z</time>
      </trkpt>
      <trkpt lat="45.21095" lon="4.62677">
        <ele>606.24853515625</ele>
        <time>2013-03-03T12:33:39Z</time>
      </trkpt>
      <trkpt lat="45.21129" lon="4.62808">
        <ele>599.51928710938</ele>
        <time>2013-03-03T12:33:52Z</time>
      </trkpt>
      <trkpt lat="45.21147" lon="4.62862">
        <ele>596.63549804688</ele>
        <time>2013-03-03T12:33:57Z</time>
      </trkpt>
      <trkpt lat="45.21175" lon="4.63009">
        <ele>590.38696289062</ele>
        <time>2013-03-03T12:34:10Z</time>
      </trkpt>
      <trkpt lat="45.2119" lon="4.63134">
        <ele>585.580078125</ele>
        <time>2013-03-03T12:34:22Z</time>
      </trkpt>
      <trkpt lat="45.21226" lon="4.63235">
        <ele>580.29296875</ele>
        <time>2013-03-03T12:34:32Z</time>
      </trkpt>
      <trkpt lat="45.21283" lon="4.6335">
        <ele>570.6796875</ele>
        <time>2013-03-03T12:34:43Z</time>
      </trkpt>
      <trkpt lat="45.21357" lon="4.63466">
        <ele>560.5859375</ele>
        <time>2013-03-03T12:34:54Z</time>
      </trkpt>
      <trkpt lat="45.21416" lon="4.63575">
        <ele>557.22143554688</ele>
        <time>2013-03-03T12:35:04Z</time>
      </trkpt>
      <trkpt lat="45.21473" lon="4.63662">
        <ele>555.29858398438</ele>
        <time>2013-03-03T12:35:15Z</time>
      </trkpt>
      <trkpt lat="45.21536" lon="4.63737">
        <ele>550.97265625</ele>
        <time>2013-03-03T12:35:27Z</time>
      </trkpt>
      <trkpt lat="45.216" lon="4.63794">
        <ele>542.80151367188</ele>
        <time>2013-03-03T12:35:35Z</time>
      </trkpt>
      <trkpt lat="45.21617" lon="4.63809">
        <ele>539.91760253906</ele>
        <time>2013-03-03T12:35:37Z</time>
      </trkpt>
      <trkpt lat="45.21629" lon="4.6382">
        <ele>537.51428222656</ele>
        <time>2013-03-03T12:35:43Z</time>
      </trkpt>
      <trkpt lat="45.21583" lon="4.63834">
        <ele>535.11096191406</ele>
        <time>2013-03-03T12:35:53Z</time>
      </trkpt>
      <trkpt lat="45.21567" lon="4.63838">
        <ele>535.11096191406</ele>
        <time>2013-03-03T12:35:56Z</time>
      </trkpt>
      <trkpt lat="45.21552" lon="4.63837">
        <ele>534.14965820312</ele>
        <time>2013-03-03T12:35:59Z</time>
      </trkpt>
      <trkpt lat="45.21538" lon="4.63872">
        <ele>530.30444335938</ele>
        <time>2013-03-03T12:36:05Z</time>
      </trkpt>
      <trkpt lat="45.21537" lon="4.63837">
        <ele>529.34313964844</ele>
        <time>2013-03-03T12:36:06Z</time>
      </trkpt>
      <trkpt lat="45.21563" lon="4.63922">
        <ele>523.5751953125</ele>
        <time>2013-03-03T12:36:11Z</time>
      </trkpt>
      <trkpt lat="45.21547" lon="4.6398">
        <ele>522.61389160156</ele>
        <time>2013-03-03T12:36:13Z</time>
      </trkpt>
      <trkpt lat="45.21572" lon="4.64005">
        <ele>519.24926757812</ele>
        <time>2013-03-03T12:36:19Z</time>
      </trkpt>
      <trkpt lat="45.21593" lon="4.64025">
        <ele>513.96203613281</ele>
        <time>2013-03-03T12:36:23Z</time>
      </trkpt>
      <trkpt lat="45.21638" lon="4.64072">
        <ele>506.271484375</ele>
        <time>2013-03-03T12:36:30Z</time>
      </trkpt>
      <trkpt lat="45.21661" lon="4.6411">
        <ele>500.98413085938</ele>
        <time>2013-03-03T12:36:34Z</time>
      </trkpt>
      <trkpt lat="45.21692" lon="4.64132">
        <ele>498.10034179688</ele>
        <time>2013-03-03T12:36:36Z</time>
      </trkpt>
      <trkpt lat="45.21683" lon="4.64184">
        <ele>488.9677734375</ele>
        <time>2013-03-03T12:36:42Z</time>
      </trkpt>
      <trkpt lat="45.21675" lon="4.64205">
        <ele>486.08374023438</ele>
        <time>2013-03-03T12:36:45Z</time>
      </trkpt>
      <trkpt lat="45.21648" lon="4.64329">
        <ele>477.43188476562</ele>
        <time>2013-03-03T12:36:56Z</time>
      </trkpt>
      <trkpt lat="45.21626" lon="4.64404">
        <ele>475.02868652344</ele>
        <time>2013-03-03T12:37:05Z</time>
      </trkpt>
      <trkpt lat="45.21626" lon="4.64404">
        <ele>475.02868652344</ele>
        <time>2013-03-03T12:37:06Z</time>
      </trkpt>
      <trkpt lat="45.21642" lon="4.64414">
        <ele>474.06726074219</ele>
        <time>2013-03-03T12:37:10Z</time>
      </trkpt>
      <trkpt lat="45.2165" lon="4.64417">
        <ele>474.06726074219</ele>
        <time>2013-03-03T12:37:12Z</time>
      </trkpt>
      <trkpt lat="45.21658" lon="4.6442">
        <ele>473.58666992188</ele>
        <time>2013-03-03T12:37:14Z</time>
      </trkpt>
      <trkpt lat="45.21673" lon="4.64428">
        <ele>473.10607910156</ele>
        <time>2013-03-03T12:37:18Z</time>
      </trkpt>
      <trkpt lat="45.21678" lon="4.64455">
        <ele>471.66394042969</ele>
        <time>2013-03-03T12:37:23Z</time>
      </trkpt>
      <trkpt lat="45.21671" lon="4.64514">
        <ele>472.14465332031</ele>
        <time>2013-03-03T12:37:31Z</time>
      </trkpt>
      <trkpt lat="45.21669" lon="4.64536">
        <ele>472.62536621094</ele>
        <time>2013-03-03T12:37:34Z</time>
      </trkpt>
      <trkpt lat="45.21657" lon="4.64636">
        <ele>471.18334960938</ele>
        <time>2013-03-03T12:37:48Z</time>
      </trkpt>
      <trkpt lat="45.21633" lon="4.64666">
        <ele>468.78002929688</ele>
        <time>2013-03-03T12:37:55Z</time>
      </trkpt>
      <trkpt lat="45.21611" lon="4.64683">
        <ele>467.81872558594</ele>
        <time>2013-03-03T12:37:59Z</time>
      </trkpt>
      <trkpt lat="45.21603" lon="4.64695">
        <ele>467.81872558594</ele>
        <time>2013-03-03T12:38:01Z</time>
      </trkpt>
      <trkpt lat="45.21563" lon="4.64723">
        <ele>464.4541015625</ele>
        <time>2013-03-03T12:38:08Z</time>
      </trkpt>
      <trkpt lat="45.21532" lon="4.64722">
        <ele>460.12817382812</ele>
        <time>2013-03-03T12:38:12Z</time>
      </trkpt>
      <trkpt lat="45.21517" lon="4.64712">
        <ele>459.16687011719</ele>
        <time>2013-03-03T12:38:14Z</time>
      </trkpt>
      <trkpt lat="45.21484" lon="4.64719">
        <ele>458.20556640625</ele>
        <time>2013-03-03T12:38:18Z</time>
      </trkpt>
      <trkpt lat="45.21402" lon="4.64727">
        <ele>452.43762207031</ele>
        <time>2013-03-03T12:38:28Z</time>
      </trkpt>
      <trkpt lat="45.21344" lon="4.64763">
        <ele>449.07299804688</ele>
        <time>2013-03-03T12:38:35Z</time>
      </trkpt>
      <trkpt lat="45.21254" lon="4.64784">
        <ele>442.34387207031</ele>
        <time>2013-03-03T12:38:45Z</time>
      </trkpt>
      <trkpt lat="45.21245" lon="4.64786">
        <ele>441.86315917969</ele>
        <time>2013-03-03T12:38:46Z</time>
      </trkpt>
      <trkpt lat="45.21214" lon="4.64824">
        <ele>441.38244628906</ele>
        <time>2013-03-03T12:38:51Z</time>
      </trkpt>
      <trkpt lat="45.21214" lon="4.64845">
        <ele>441.86315917969</ele>
        <time>2013-03-03T12:38:53Z</time>
      </trkpt>
      <trkpt lat="45.21219" lon="4.64894">
        <ele>440.90185546875</ele>
        <time>2013-03-03T12:38:58Z</time>
      </trkpt>
      <trkpt lat="45.21199" lon="4.64998">
        <ele>437.537109375</ele>
        <time>2013-03-03T12:39:08Z</time>
      </trkpt>
      <trkpt lat="45.2119" lon="4.65033">
        <ele>438.49853515625</ele>
        <time>2013-03-03T12:39:12Z</time>
      </trkpt>
      <trkpt lat="45.21167" lon="4.65071">
        <ele>439.45971679688</ele>
        <time>2013-03-03T12:39:19Z</time>
      </trkpt>
      <trkpt lat="45.21153" lon="4.65092">
        <ele>438.97912597656</ele>
        <time>2013-03-03T12:39:23Z</time>
      </trkpt>
      <trkpt lat="45.21138" lon="4.65112">
        <ele>438.97912597656</ele>
        <time>2013-03-03T12:39:27Z</time>
      </trkpt>
      <trkpt lat="45.21097" lon="4.65117">
        <ele>439.45971679688</ele>
        <time>2013-03-03T12:39:36Z</time>
      </trkpt>
      <trkpt lat="45.2105" lon="4.651">
        <ele>437.05651855469</ele>
        <time>2013-03-03T12:39:45Z</time>
      </trkpt>
      <trkpt lat="45.20981" lon="4.65091">
        <ele>436.09521484375</ele>
        <time>2013-03-03T12:39:59Z</time>
      </trkpt>
      <trkpt lat="45.20973" lon="4.65092">
        <ele>436.09521484375</ele>
        <time>2013-03-03T12:40:01Z</time>
      </trkpt>
      <trkpt lat="45.2091" lon="4.65106">
        <ele>435.61450195312</ele>
        <time>2013-03-03T12:40:18Z</time>
      </trkpt>
      <trkpt lat="45.20863" lon="4.65109">
        <ele>435.61450195312</ele>
        <time>2013-03-03T12:40:31Z</time>
      </trkpt>
      <trkpt lat="45.20822" lon="4.65088">
        <ele>437.05651855469</ele>
        <time>2013-03-03T12:40:45Z</time>
      </trkpt>
      <trkpt lat="45.20791" lon="4.65072">
        <ele>437.537109375</ele>
        <time>2013-03-03T12:40:59Z</time>
      </trkpt>
      <trkpt lat="45.20773" lon="4.65076">
        <ele>438.49853515625</ele>
        <time>2013-03-03T12:41:08Z</time>
      </trkpt>
      <trkpt lat="45.20762" lon="4.65078">
        <ele>438.97912597656</ele>
        <time>2013-03-03T12:41:14Z</time>
      </trkpt>
      <trkpt lat="45.20747" lon="4.6505">
        <ele>441.86315917969</ele>
        <time>2013-03-03T12:41:31Z</time>
      </trkpt>
      <trkpt lat="45.20747" lon="4.6505">
        <ele>442.34387207031</ele>
        <time>2013-03-03T12:41:37Z</time>
      </trkpt>
      <trkpt lat="45.2072" lon="4.65024">
        <ele>444.26647949219</ele>
        <time>2013-03-03T12:41:57Z</time>
      </trkpt>
      <trkpt lat="45.20695" lon="4.64997">
        <ele>446.66967773438</ele>
        <time>2013-03-03T12:42:21Z</time>
      </trkpt>
      <trkpt lat="45.20681" lon="4.6498">
        <ele>448.59240722656</ele>
        <time>2013-03-03T12:42:37Z</time>
      </trkpt>
      <trkpt lat="45.20681" lon="4.6498">
        <ele>450.99560546875</ele>
        <time>2013-03-03T12:42:57Z</time>
      </trkpt>
      <trkpt lat="45.20681" lon="4.6498">
        <ele>452.43762207031</ele>
        <time>2013-03-03T12:43:07Z</time>
      </trkpt>
      <trkpt lat="45.20657" lon="4.64934">
        <ele>452.43762207031</ele>
        <time>2013-03-03T12:43:09Z</time>
      </trkpt>
      <trkpt lat="45.20656" lon="4.64932">
        <ele>453.39892578125</ele>
        <time>2013-03-03T12:43:15Z</time>
      </trkpt>
      <trkpt lat="45.20656" lon="4.64932">
        <ele>453.39892578125</ele>
        <time>2013-03-03T12:43:20Z</time>
      </trkpt>
      <trkpt lat="45.20656" lon="4.64932">
        <ele>454.36022949219</ele>
        <time>2013-03-03T12:43:25Z</time>
      </trkpt>
      <trkpt lat="45.20652" lon="4.64885">
        <ele>455.80224609375</ele>
        <time>2013-03-03T12:43:44Z</time>
      </trkpt>
      <trkpt lat="45.20659" lon="4.64855">
        <ele>458.20556640625</ele>
        <time>2013-03-03T12:44:03Z</time>
      </trkpt>
      <trkpt lat="45.20662" lon="4.64846">
        <ele>458.68615722656</ele>
        <time>2013-03-03T12:44:09Z</time>
      </trkpt>
      <trkpt lat="45.20675" lon="4.64826">
        <ele>461.57019042969</ele>
        <time>2013-03-03T12:44:24Z</time>
      </trkpt>
      <trkpt lat="45.20691" lon="4.64802">
        <ele>463.49279785156</ele>
        <time>2013-03-03T12:44:43Z</time>
      </trkpt>
      <trkpt lat="45.20696" lon="4.64794">
        <ele>464.93481445312</ele>
        <time>2013-03-03T12:44:52Z</time>
      </trkpt>
      <trkpt lat="45.20698" lon="4.64791">
        <ele>465.41552734375</ele>
        <time>2013-03-03T12:44:56Z</time>
      </trkpt>
      <trkpt lat="45.20716" lon="4.6476">
        <ele>466.857421875</ele>
        <time>2013-03-03T12:45:14Z</time>
      </trkpt>
      <trkpt lat="45.20721" lon="4.64756">
        <ele>467.33813476562</ele>
        <time>2013-03-03T12:45:18Z</time>
      </trkpt>
      <trkpt lat="45.20742" lon="4.64742">
        <ele>469.2607421875</ele>
        <time>2013-03-03T12:45:33Z</time>
      </trkpt>
      <trkpt lat="45.20763" lon="4.64726">
        <ele>471.18334960938</ele>
        <time>2013-03-03T12:45:48Z</time>
      </trkpt>
      <trkpt lat="45.20784" lon="4.6471">
        <ele>471.66394042969</ele>
        <time>2013-03-03T12:46:03Z</time>
      </trkpt>
      <trkpt lat="45.20804" lon="4.64691">
        <ele>474.06726074219</ele>
        <time>2013-03-03T12:46:20Z</time>
      </trkpt>
      <trkpt lat="45.20819" lon="4.64671">
        <ele>473.10607910156</ele>
        <time>2013-03-03T12:46:34Z</time>
      </trkpt>
      <trkpt lat="45.20843" lon="4.64633">
        <ele>472.14465332031</ele>
        <time>2013-03-03T12:46:49Z</time>
      </trkpt>
      <trkpt lat="45.20863" lon="4.64603">
        <ele>473.10607910156</ele>
        <time>2013-03-03T12:46:59Z</time>
      </trkpt>
      <trkpt lat="45.2088" lon="4.6457">
        <ele>475.50927734375</ele>
        <time>2013-03-03T12:47:11Z</time>
      </trkpt>
      <trkpt lat="45.20887" lon="4.64535">
        <ele>476.47058105469</ele>
        <time>2013-03-03T12:47:24Z</time>
      </trkpt>
      <trkpt lat="45.20885" lon="4.64524">
        <ele>475.50927734375</ele>
        <time>2013-03-03T12:47:31Z</time>
      </trkpt>
      <trkpt lat="45.20882" lon="4.64513">
        <ele>476.47058105469</ele>
        <time>2013-03-03T12:47:36Z</time>
      </trkpt>
      <trkpt lat="45.20876" lon="4.64493">
        <ele>477.91247558594</ele>
        <time>2013-03-03T12:47:49Z</time>
      </trkpt>
      <trkpt lat="45.20876" lon="4.64493">
        <ele>476.47058105469</ele>
        <time>2013-03-03T12:50:00Z</time>
      </trkpt>
      <trkpt lat="45.20872" lon="4.64483">
        <ele>477.43188476562</ele>
        <time>2013-03-03T12:50:04Z</time>
      </trkpt>
      <trkpt lat="45.20865" lon="4.64458">
        <ele>479.83508300781</ele>
        <time>2013-03-03T12:50:18Z</time>
      </trkpt>
      <trkpt lat="45.20863" lon="4.64446">
        <ele>481.27722167969</ele>
        <time>2013-03-03T12:50:24Z</time>
      </trkpt>
      <trkpt lat="45.20853" lon="4.64415">
        <ele>485.60302734375</ele>
        <time>2013-03-03T12:50:43Z</time>
      </trkpt>
      <trkpt lat="45.20852" lon="4.64414">
        <ele>487.04504394531</ele>
        <time>2013-03-03T12:50:59Z</time>
      </trkpt>
      <trkpt lat="45.20835" lon="4.64382">
        <ele>488.00646972656</ele>
        <time>2013-03-03T12:51:19Z</time>
      </trkpt>
      <trkpt lat="45.20835" lon="4.64382">
        <ele>488.9677734375</ele>
        <time>2013-03-03T12:51:30Z</time>
      </trkpt>
      <trkpt lat="45.20835" lon="4.64382">
        <ele>491.37097167969</ele>
        <time>2013-03-03T12:51:41Z</time>
      </trkpt>
      <trkpt lat="45.20829" lon="4.64322">
        <ele>491.37097167969</ele>
        <time>2013-03-03T12:51:46Z</time>
      </trkpt>
      <trkpt lat="45.20814" lon="4.64293">
        <ele>493.77429199219</ele>
        <time>2013-03-03T12:52:07Z</time>
      </trkpt>
      <trkpt lat="45.20802" lon="4.64267">
        <ele>496.65832519531</ele>
        <time>2013-03-03T12:52:23Z</time>
      </trkpt>
      <trkpt lat="45.208" lon="4.64263">
        <ele>496.65832519531</ele>
        <time>2013-03-03T12:52:25Z</time>
      </trkpt>
      <trkpt lat="45.20792" lon="4.64248">
        <ele>498.58093261719</ele>
        <time>2013-03-03T12:52:39Z</time>
      </trkpt>
      <trkpt lat="45.20778" lon="4.64221">
        <ele>500.98413085938</ele>
        <time>2013-03-03T12:52:54Z</time>
      </trkpt>
      <trkpt lat="45.20776" lon="4.64216">
        <ele>500.50354003906</ele>
        <time>2013-03-03T12:52:57Z</time>
      </trkpt>
      <trkpt lat="45.20765" lon="4.64194">
        <ele>501.94555664062</ele>
        <time>2013-03-03T12:53:12Z</time>
      </trkpt>
      <trkpt lat="45.20754" lon="4.64172">
        <ele>506.271484375</ele>
        <time>2013-03-03T12:53:26Z</time>
      </trkpt>
      <trkpt lat="45.2075" lon="4.64164">
        <ele>506.271484375</ele>
        <time>2013-03-03T12:53:31Z</time>
      </trkpt>
      <trkpt lat="45.2074" lon="4.64147">
        <ele>508.67468261719</ele>
        <time>2013-03-03T12:53:43Z</time>
      </trkpt>
      <trkpt lat="45.20726" lon="4.64128">
        <ele>512.03942871094</ele>
        <time>2013-03-03T12:53:56Z</time>
      </trkpt>
      <trkpt lat="45.20704" lon="4.64116">
        <ele>512.03942871094</ele>
        <time>2013-03-03T12:54:15Z</time>
      </trkpt>
      <trkpt lat="45.20674" lon="4.64111">
        <ele>515.88464355469</ele>
        <time>2013-03-03T12:54:38Z</time>
      </trkpt>
      <trkpt lat="45.20657" lon="4.64108">
        <ele>517.80725097656</ele>
        <time>2013-03-03T12:54:52Z</time>
      </trkpt>
      <trkpt lat="45.2064" lon="4.64091">
        <ele>516.84594726562</ele>
        <time>2013-03-03T12:55:06Z</time>
      </trkpt>
      <trkpt lat="45.20632" lon="4.64082">
        <ele>517.32666015625</ele>
        <time>2013-03-03T12:55:13Z</time>
      </trkpt>
      <trkpt lat="45.20618" lon="4.64062">
        <ele>520.21057128906</ele>
        <time>2013-03-03T12:55:28Z</time>
      </trkpt>
      <trkpt lat="45.20605" lon="4.64033">
        <ele>521.17199707031</ele>
        <time>2013-03-03T12:55:44Z</time>
      </trkpt>
      <trkpt lat="45.206" lon="4.64018">
        <ele>522.13317871094</ele>
        <time>2013-03-03T12:55:54Z</time>
      </trkpt>
      <trkpt lat="45.20598" lon="4.64008">
        <ele>522.13317871094</ele>
        <time>2013-03-03T12:55:59Z</time>
      </trkpt>
      <trkpt lat="45.20593" lon="4.63989">
        <ele>523.5751953125</ele>
        <time>2013-03-03T12:56:13Z</time>
      </trkpt>
      <trkpt lat="45.20589" lon="4.63974">
        <ele>524.05578613281</ele>
        <time>2013-03-03T12:56:24Z</time>
      </trkpt>
      <trkpt lat="45.20583" lon="4.63957">
        <ele>526.45910644531</ele>
        <time>2013-03-03T12:56:33Z</time>
      </trkpt>
      <trkpt lat="45.20582" lon="4.63953">
        <ele>526.45910644531</ele>
        <time>2013-03-03T12:56:38Z</time>
      </trkpt>
      <trkpt lat="45.20582" lon="4.63953">
        <ele>529.34313964844</ele>
        <time>2013-03-03T12:56:50Z</time>
      </trkpt>
      <trkpt lat="45.2057" lon="4.63933">
        <ele>527.90100097656</ele>
        <time>2013-03-03T12:57:01Z</time>
      </trkpt>
      <trkpt lat="45.20542" lon="4.6389">
        <ele>530.78515625</ele>
        <time>2013-03-03T12:57:17Z</time>
      </trkpt>
      <trkpt lat="45.20524" lon="4.63866">
        <ele>532.22705078125</ele>
        <time>2013-03-03T12:57:32Z</time>
      </trkpt>
      <trkpt lat="45.20508" lon="4.63835">
        <ele>530.30444335938</ele>
        <time>2013-03-03T12:57:50Z</time>
      </trkpt>
      <trkpt lat="45.20495" lon="4.63813">
        <ele>529.34313964844</ele>
        <time>2013-03-03T12:58:03Z</time>
      </trkpt>
      <trkpt lat="45.20483" lon="4.63788">
        <ele>532.22705078125</ele>
        <time>2013-03-03T12:58:17Z</time>
      </trkpt>
      <trkpt lat="45.20467" lon="4.63745">
        <ele>532.22705078125</ele>
        <time>2013-03-03T12:58:37Z</time>
      </trkpt>
      <trkpt lat="45.20458" lon="4.63729">
        <ele>531.74633789062</ele>
        <time>2013-03-03T12:58:45Z</time>
      </trkpt>
      <trkpt lat="45.2045" lon="4.63715">
        <ele>532.70776367188</ele>
        <time>2013-03-03T12:58:53Z</time>
      </trkpt>
      <trkpt lat="45.20446" lon="4.63709">
        <ele>533.6689453125</ele>
        <time>2013-03-03T12:58:57Z</time>
      </trkpt>
      <trkpt lat="45.20435" lon="4.63689">
        <ele>533.18835449219</ele>
        <time>2013-03-03T12:59:08Z</time>
      </trkpt>
      <trkpt lat="45.20414" lon="4.63656">
        <ele>537.51428222656</ele>
        <time>2013-03-03T12:59:23Z</time>
      </trkpt>
      <trkpt lat="45.20404" lon="4.63641">
        <ele>538.47570800781</ele>
        <time>2013-03-03T12:59:32Z</time>
      </trkpt>
      <trkpt lat="45.20399" lon="4.63633">
        <ele>540.87890625</ele>
        <time>2013-03-03T12:59:37Z</time>
      </trkpt>
      <trkpt lat="45.20399" lon="4.63633">
        <ele>542.32092285156</ele>
        <time>2013-03-03T12:59:39Z</time>
      </trkpt>
      <trkpt lat="45.2039" lon="4.6362">
        <ele>546.16625976562</ele>
        <time>2013-03-03T12:59:48Z</time>
      </trkpt>
      <trkpt lat="45.20388" lon="4.63618">
        <ele>547.12744140625</ele>
        <time>2013-03-03T12:59:51Z</time>
      </trkpt>
      <trkpt lat="45.20373" lon="4.63601">
        <ele>549.53076171875</ele>
        <time>2013-03-03T13:00:05Z</time>
      </trkpt>
      <trkpt lat="45.20369" lon="4.63597">
        <ele>550.01147460938</ele>
        <time>2013-03-03T13:00:08Z</time>
      </trkpt>
      <trkpt lat="45.20363" lon="4.63591">
        <ele>551.45336914062</ele>
        <time>2013-03-03T13:00:13Z</time>
      </trkpt>
      <trkpt lat="45.20342" lon="4.63575">
        <ele>552.89526367188</ele>
        <time>2013-03-03T13:00:31Z</time>
      </trkpt>
      <trkpt lat="45.20321" lon="4.63558">
        <ele>552.89526367188</ele>
        <time>2013-03-03T13:00:51Z</time>
      </trkpt>
      <trkpt lat="45.20306" lon="4.63544">
        <ele>554.33740234375</ele>
        <time>2013-03-03T13:01:05Z</time>
      </trkpt>
      <trkpt lat="45.20294" lon="4.63533">
        <ele>555.779296875</ele>
        <time>2013-03-03T13:01:18Z</time>
      </trkpt>
      <trkpt lat="45.20294" lon="4.63533">
        <ele>552.41455078125</ele>
        <time>2013-03-03T13:01:31Z</time>
      </trkpt>
      <trkpt lat="45.20278" lon="4.63518">
        <ele>553.3759765625</ele>
        <time>2013-03-03T13:01:45Z</time>
      </trkpt>
      <trkpt lat="45.20267" lon="4.63506">
        <ele>554.33740234375</ele>
        <time>2013-03-03T13:01:48Z</time>
      </trkpt>
      <trkpt lat="45.20259" lon="4.63495">
        <ele>556.74072265625</ele>
        <time>2013-03-03T13:02:04Z</time>
      </trkpt>
      <trkpt lat="45.20242" lon="4.63473">
        <ele>561.06665039062</ele>
        <time>2013-03-03T13:02:21Z</time>
      </trkpt>
      <trkpt lat="45.20242" lon="4.63473">
        <ele>559.62475585938</ele>
        <time>2013-03-03T13:02:41Z</time>
      </trkpt>
      <trkpt lat="45.20197" lon="4.63453">
        <ele>562.02807617188</ele>
        <time>2013-03-03T13:02:59Z</time>
      </trkpt>
      <trkpt lat="45.20172" lon="4.63452">
        <ele>562.9892578125</ele>
        <time>2013-03-03T13:03:17Z</time>
      </trkpt>
      <trkpt lat="45.20139" lon="4.63449">
        <ele>562.50854492188</ele>
        <time>2013-03-03T13:03:39Z</time>
      </trkpt>
      <trkpt lat="45.2011" lon="4.63449">
        <ele>562.9892578125</ele>
        <time>2013-03-03T13:03:55Z</time>
      </trkpt>
      <trkpt lat="45.20101" lon="4.63476">
        <ele>563.95043945312</ele>
        <time>2013-03-03T13:04:03Z</time>
      </trkpt>
      <trkpt lat="45.20104" lon="4.63478">
        <ele>564.91186523438</ele>
        <time>2013-03-03T13:04:08Z</time>
      </trkpt>
      <trkpt lat="45.20119" lon="4.63475">
        <ele>565.87329101562</ele>
        <time>2013-03-03T13:04:18Z</time>
      </trkpt>
      <trkpt lat="45.20141" lon="4.63469">
        <ele>566.83447265625</ele>
        <time>2013-03-03T13:04:32Z</time>
      </trkpt>
      <trkpt lat="45.20164" lon="4.63476">
        <ele>568.2763671875</ele>
        <time>2013-03-03T13:04:48Z</time>
      </trkpt>
      <trkpt lat="45.2019" lon="4.635">
        <ele>570.6796875</ele>
        <time>2013-03-03T13:05:09Z</time>
      </trkpt>
      <trkpt lat="45.20193" lon="4.63508">
        <ele>570.19897460938</ele>
        <time>2013-03-03T13:05:14Z</time>
      </trkpt>
      <trkpt lat="45.20204" lon="4.6353">
        <ele>571.16040039062</ele>
        <time>2013-03-03T13:05:27Z</time>
      </trkpt>
      <trkpt lat="45.20212" lon="4.6356">
        <ele>573.08325195312</ele>
        <time>2013-03-03T13:05:44Z</time>
      </trkpt>
      <trkpt lat="45.20219" lon="4.63588">
        <ele>575.96704101562</ele>
        <time>2013-03-03T13:06:01Z</time>
      </trkpt>
      <trkpt lat="45.20228" lon="4.63615">
        <ele>578.85107421875</ele>
        <time>2013-03-03T13:06:18Z</time>
      </trkpt>
      <trkpt lat="45.20241" lon="4.63644">
        <ele>581.73486328125</ele>
        <time>2013-03-03T13:06:37Z</time>
      </trkpt>
      <trkpt lat="45.20248" lon="4.63667">
        <ele>584.61889648438</ele>
        <time>2013-03-03T13:06:53Z</time>
      </trkpt>
      <trkpt lat="45.20264" lon="4.63703">
        <ele>586.06079101562</ele>
        <time>2013-03-03T13:07:13Z</time>
      </trkpt>
      <trkpt lat="45.20276" lon="4.63727">
        <ele>588.46435546875</ele>
        <time>2013-03-03T13:07:28Z</time>
      </trkpt>
      <trkpt lat="45.20292" lon="4.63759">
        <ele>588.94506835938</ele>
        <time>2013-03-03T13:07:48Z</time>
      </trkpt>
      <trkpt lat="45.20294" lon="4.63788">
        <ele>590.38696289062</ele>
        <time>2013-03-03T13:08:07Z</time>
      </trkpt>
      <trkpt lat="45.20293" lon="4.63789">
        <ele>590.38696289062</ele>
        <time>2013-03-03T13:08:08Z</time>
      </trkpt>
      <trkpt lat="45.20281" lon="4.63791">
        <ele>592.79028320312</ele>
        <time>2013-03-03T13:08:17Z</time>
      </trkpt>
      <trkpt lat="45.20268" lon="4.63793">
        <ele>597.11596679688</ele>
        <time>2013-03-03T13:08:28Z</time>
      </trkpt>
      <trkpt lat="45.20247" lon="4.63794">
        <ele>601.44189453125</ele>
        <time>2013-03-03T13:08:45Z</time>
      </trkpt>
      <trkpt lat="45.20244" lon="4.63794">
        <ele>600.96118164062</ele>
        <time>2013-03-03T13:09:00Z</time>
      </trkpt>
      <trkpt lat="45.20243" lon="4.63794">
        <ele>600.96118164062</ele>
        <time>2013-03-03T13:09:13Z</time>
      </trkpt>
      <trkpt lat="45.20237" lon="4.63799">
        <ele>603.36450195312</ele>
        <time>2013-03-03T13:09:19Z</time>
      </trkpt>
      <trkpt lat="45.20232" lon="4.63799">
        <ele>603.84521484375</ele>
        <time>2013-03-03T13:09:23Z</time>
      </trkpt>
      <trkpt lat="45.20218" lon="4.63793">
        <ele>607.2099609375</ele>
        <time>2013-03-03T13:09:35Z</time>
      </trkpt>
      <trkpt lat="45.20213" lon="4.63793">
        <ele>608.17138671875</ele>
        <time>2013-03-03T13:09:40Z</time>
      </trkpt>
      <trkpt lat="45.20202" lon="4.63793">
        <ele>611.53588867188</ele>
        <time>2013-03-03T13:09:50Z</time>
      </trkpt>
      <trkpt lat="45.20199" lon="4.63793">
        <ele>612.0166015625</ele>
        <time>2013-03-03T13:09:53Z</time>
      </trkpt>
      <trkpt lat="45.20197" lon="4.63793">
        <ele>612.4970703125</ele>
        <time>2013-03-03T13:09:55Z</time>
      </trkpt>
      <trkpt lat="45.20192" lon="4.63794">
        <ele>612.97778320312</ele>
        <time>2013-03-03T13:09:59Z</time>
      </trkpt>
      <trkpt lat="45.20175" lon="4.63793">
        <ele>616.34228515625</ele>
        <time>2013-03-03T13:10:13Z</time>
      </trkpt>
      <trkpt lat="45.20172" lon="4.63793">
        <ele>616.34228515625</ele>
        <time>2013-03-03T13:10:15Z</time>
      </trkpt>
      <trkpt lat="45.20162" lon="4.63787">
        <ele>616.34228515625</ele>
        <time>2013-03-03T13:10:31Z</time>
      </trkpt>
      <trkpt lat="45.20149" lon="4.63775">
        <ele>614.900390625</ele>
        <time>2013-03-03T13:11:58Z</time>
      </trkpt>
      <trkpt lat="45.2012" lon="4.63744">
        <ele>613.45849609375</ele>
        <time>2013-03-03T13:12:11Z</time>
      </trkpt>
      <trkpt lat="45.20097" lon="4.63733">
        <ele>613.93896484375</ele>
        <time>2013-03-03T13:12:22Z</time>
      </trkpt>
      <trkpt lat="45.20076" lon="4.63739">
        <ele>613.93896484375</ele>
        <time>2013-03-03T13:12:33Z</time>
      </trkpt>
      <trkpt lat="45.20055" lon="4.63746">
        <ele>613.45849609375</ele>
        <time>2013-03-03T13:12:44Z</time>
      </trkpt>
      <trkpt lat="45.20037" lon="4.63754">
        <ele>614.41967773438</ele>
        <time>2013-03-03T13:12:55Z</time>
      </trkpt>
      <trkpt lat="45.20032" lon="4.63755">
        <ele>613.93896484375</ele>
        <time>2013-03-03T13:12:58Z</time>
      </trkpt>
      <trkpt lat="45.20029" lon="4.6376">
        <ele>615.38110351562</ele>
        <time>2013-03-03T13:13:09Z</time>
      </trkpt>
      <trkpt lat="45.20029" lon="4.63761">
        <ele>615.38110351562</ele>
        <time>2013-03-03T13:13:19Z</time>
      </trkpt>
      <trkpt lat="45.20041" lon="4.63782">
        <ele>618.26489257812</ele>
        <time>2013-03-03T13:13:31Z</time>
      </trkpt>
      <trkpt lat="45.20045" lon="4.63786">
        <ele>618.74560546875</ele>
        <time>2013-03-03T13:13:34Z</time>
      </trkpt>
      <trkpt lat="45.20047" lon="4.63792">
        <ele>620.18774414062</ele>
        <time>2013-03-03T13:13:37Z</time>
      </trkpt>
      <trkpt lat="45.20045" lon="4.63804">
        <ele>622.59106445312</ele>
        <time>2013-03-03T13:13:44Z</time>
      </trkpt>
      <trkpt lat="45.20027" lon="4.63814">
        <ele>626.43627929688</ele>
        <time>2013-03-03T13:13:57Z</time>
      </trkpt>
      <trkpt lat="45.20003" lon="4.63827">
        <ele>631.72338867188</ele>
        <time>2013-03-03T13:14:13Z</time>
      </trkpt>
      <trkpt lat="45.19991" lon="4.63842">
        <ele>634.607421875</ele>
        <time>2013-03-03T13:14:23Z</time>
      </trkpt>
      <trkpt lat="45.19991" lon="4.63843">
        <ele>634.607421875</ele>
        <time>2013-03-03T13:14:24Z</time>
      </trkpt>
      <trkpt lat="45.19985" lon="4.63852">
        <ele>634.607421875</ele>
        <time>2013-03-03T13:14:30Z</time>
      </trkpt>
      <trkpt lat="45.19983" lon="4.63856">
        <ele>634.607421875</ele>
        <time>2013-03-03T13:14:40Z</time>
      </trkpt>
      <trkpt lat="45.19983" lon="4.63856">
        <ele>635.08813476562</ele>
        <time>2013-03-03T13:15:28Z</time>
      </trkpt>
      <trkpt lat="45.19976" lon="4.6387">
        <ele>633.64599609375</ele>
        <time>2013-03-03T13:15:33Z</time>
      </trkpt>
      <trkpt lat="45.19969" lon="4.63877">
        <ele>634.12670898438</ele>
        <time>2013-03-03T13:15:35Z</time>
      </trkpt>
      <trkpt lat="45.19945" lon="4.63898">
        <ele>631.72338867188</ele>
        <time>2013-03-03T13:15:42Z</time>
      </trkpt>
      <trkpt lat="45.19928" lon="4.63901">
        <ele>632.2041015625</ele>
        <time>2013-03-03T13:15:46Z</time>
      </trkpt>
      <trkpt lat="45.1991" lon="4.6391">
        <ele>632.2041015625</ele>
        <time>2013-03-03T13:15:50Z</time>
      </trkpt>
      <trkpt lat="45.19872" lon="4.6394">
        <ele>629.80078125</ele>
        <time>2013-03-03T13:15:59Z</time>
      </trkpt>
      <trkpt lat="45.19823" lon="4.63956">
        <ele>629.32006835938</ele>
        <time>2013-03-03T13:16:09Z</time>
      </trkpt>
      <trkpt lat="45.19805" lon="4.6396">
        <ele>628.83959960938</ele>
        <time>2013-03-03T13:16:13Z</time>
      </trkpt>
      <trkpt lat="45.19758" lon="4.63981">
        <ele>623.55249023438</ele>
        <time>2013-03-03T13:16:21Z</time>
      </trkpt>
      <trkpt lat="45.19727" lon="4.63993">
        <ele>620.66845703125</ele>
        <time>2013-03-03T13:16:25Z</time>
      </trkpt>
      <trkpt lat="45.19698" lon="4.63984">
        <ele>616.34228515625</ele>
        <time>2013-03-03T13:16:29Z</time>
      </trkpt>
      <trkpt lat="45.19671" lon="4.63967">
        <ele>611.53588867188</ele>
        <time>2013-03-03T13:16:34Z</time>
      </trkpt>
      <trkpt lat="45.19673" lon="4.63991">
        <ele>611.05517578125</ele>
        <time>2013-03-03T13:16:37Z</time>
      </trkpt>
      <trkpt lat="45.19692" lon="4.64037">
        <ele>604.806640625</ele>
        <time>2013-03-03T13:16:45Z</time>
      </trkpt>
      <trkpt lat="45.19682" lon="4.64035">
        <ele>602.40307617188</ele>
        <time>2013-03-03T13:16:48Z</time>
      </trkpt>
      <trkpt lat="45.19673" lon="4.64029">
        <ele>600.96118164062</ele>
        <time>2013-03-03T13:16:50Z</time>
      </trkpt>
      <trkpt lat="45.1967" lon="4.6405">
        <ele>596.15478515625</ele>
        <time>2013-03-03T13:16:55Z</time>
      </trkpt>
      <trkpt lat="45.19696" lon="4.64083">
        <ele>591.82885742188</ele>
        <time>2013-03-03T13:17:01Z</time>
      </trkpt>
      <trkpt lat="45.19684" lon="4.64091">
        <ele>589.90625</ele>
        <time>2013-03-03T13:17:05Z</time>
      </trkpt>
      <trkpt lat="45.19666" lon="4.64083">
        <ele>587.02197265625</ele>
        <time>2013-03-03T13:17:08Z</time>
      </trkpt>
      <trkpt lat="45.19639" lon="4.64061">
        <ele>579.81225585938</ele>
        <time>2013-03-03T13:17:14Z</time>
      </trkpt>
      <trkpt lat="45.19639" lon="4.64078">
        <ele>577.4091796875</ele>
        <time>2013-03-03T13:17:18Z</time>
      </trkpt>
      <trkpt lat="45.19645" lon="4.64102">
        <ele>576.92846679688</ele>
        <time>2013-03-03T13:17:21Z</time>
      </trkpt>
      <trkpt lat="45.19664" lon="4.64126">
        <ele>575.005859375</ele>
        <time>2013-03-03T13:17:25Z</time>
      </trkpt>
      <trkpt lat="45.19678" lon="4.64148">
        <ele>571.16040039062</ele>
        <time>2013-03-03T13:17:30Z</time>
      </trkpt>
      <trkpt lat="45.19658" lon="4.64157">
        <ele>570.6796875</ele>
        <time>2013-03-03T13:17:36Z</time>
      </trkpt>
      <trkpt lat="45.19636" lon="4.64154">
        <ele>565.87329101562</ele>
        <time>2013-03-03T13:17:40Z</time>
      </trkpt>
      <trkpt lat="45.19629" lon="4.64164">
        <ele>565.392578125</ele>
        <time>2013-03-03T13:17:46Z</time>
      </trkpt>
      <trkpt lat="45.19635" lon="4.64173">
        <ele>564.91186523438</ele>
        <time>2013-03-03T13:17:50Z</time>
      </trkpt>
      <trkpt lat="45.19646" lon="4.64188">
        <ele>562.9892578125</ele>
        <time>2013-03-03T13:17:53Z</time>
      </trkpt>
      <trkpt lat="45.19666" lon="4.64208">
        <ele>557.7021484375</ele>
        <time>2013-03-03T13:17:56Z</time>
      </trkpt>
      <trkpt lat="45.19682" lon="4.64221">
        <ele>555.29858398438</ele>
        <time>2013-03-03T13:17:58Z</time>
      </trkpt>
      <trkpt lat="45.19738" lon="4.64242">
        <ele>548.0888671875</ele>
        <time>2013-03-03T13:18:05Z</time>
      </trkpt>
      <trkpt lat="45.19777" lon="4.64294">
        <ele>540.87890625</ele>
        <time>2013-03-03T13:18:12Z</time>
      </trkpt>
      <trkpt lat="45.19781" lon="4.64303">
        <ele>537.99499511719</ele>
        <time>2013-03-03T13:18:15Z</time>
      </trkpt>
      <trkpt lat="45.19794" lon="4.64302">
        <ele>537.99499511719</ele>
        <time>2013-03-03T13:18:22Z</time>
      </trkpt>
      <trkpt lat="45.19796" lon="4.64302">
        <ele>538.47570800781</ele>
        <time>2013-03-03T13:18:23Z</time>
      </trkpt>
      <trkpt lat="45.19827" lon="4.6429">
        <ele>540.87890625</ele>
        <time>2013-03-03T13:18:40Z</time>
      </trkpt>
      <trkpt lat="45.19863" lon="4.64277">
        <ele>539.91760253906</ele>
        <time>2013-03-03T13:18:53Z</time>
      </trkpt>
      <trkpt lat="45.19882" lon="4.6427">
        <ele>538.95629882812</ele>
        <time>2013-03-03T13:19:00Z</time>
      </trkpt>
      <trkpt lat="45.19924" lon="4.64243">
        <ele>534.63037109375</ele>
        <time>2013-03-03T13:19:08Z</time>
      </trkpt>
      <trkpt lat="45.1993" lon="4.64237">
        <ele>534.14965820312</ele>
        <time>2013-03-03T13:19:09Z</time>
      </trkpt>
      <trkpt lat="45.19961" lon="4.64262">
        <ele>532.70776367188</ele>
        <time>2013-03-03T13:19:15Z</time>
      </trkpt>
      <trkpt lat="45.19964" lon="4.6428">
        <ele>532.22705078125</ele>
        <time>2013-03-03T13:19:17Z</time>
      </trkpt>
      <trkpt lat="45.19968" lon="4.64314">
        <ele>531.26574707031</ele>
        <time>2013-03-03T13:19:21Z</time>
      </trkpt>
      <trkpt lat="45.19969" lon="4.64331">
        <ele>531.74633789062</ele>
        <time>2013-03-03T13:19:24Z</time>
      </trkpt>
      <trkpt lat="45.19955" lon="4.64376">
        <ele>527.90100097656</ele>
        <time>2013-03-03T13:19:30Z</time>
      </trkpt>
      <trkpt lat="45.19944" lon="4.64393">
        <ele>524.05578613281</ele>
        <time>2013-03-03T13:19:33Z</time>
      </trkpt>
      <trkpt lat="45.19932" lon="4.64433">
        <ele>518.28784179688</ele>
        <time>2013-03-03T13:19:37Z</time>
      </trkpt>
      <trkpt lat="45.1994" lon="4.64489">
        <ele>514.92333984375</ele>
        <time>2013-03-03T13:19:42Z</time>
      </trkpt>
      <trkpt lat="45.19923" lon="4.64529">
        <ele>511.55871582031</ele>
        <time>2013-03-03T13:19:47Z</time>
      </trkpt>
      <trkpt lat="45.19913" lon="4.64549">
        <ele>507.71350097656</ele>
        <time>2013-03-03T13:19:52Z</time>
      </trkpt>
      <trkpt lat="45.19906" lon="4.64607">
        <ele>500.98413085938</ele>
        <time>2013-03-03T13:20:01Z</time>
      </trkpt>
      <trkpt lat="45.19906" lon="4.64615">
        <ele>500.50354003906</ele>
        <time>2013-03-03T13:20:02Z</time>
      </trkpt>
      <trkpt lat="45.19899" lon="4.64637">
        <ele>498.58093261719</ele>
        <time>2013-03-03T13:20:05Z</time>
      </trkpt>
      <trkpt lat="45.19893" lon="4.64657">
        <ele>496.65832519531</ele>
        <time>2013-03-03T13:20:08Z</time>
      </trkpt>
      <trkpt lat="45.19884" lon="4.64703">
        <ele>491.37097167969</ele>
        <time>2013-03-03T13:20:14Z</time>
      </trkpt>
      <trkpt lat="45.19879" lon="4.64754">
        <ele>484.1611328125</ele>
        <time>2013-03-03T13:20:23Z</time>
      </trkpt>
      <trkpt lat="45.19898" lon="4.64781">
        <ele>480.79663085938</ele>
        <time>2013-03-03T13:20:31Z</time>
      </trkpt>
      <trkpt lat="45.19908" lon="4.6479">
        <ele>478.39318847656</ele>
        <time>2013-03-03T13:20:35Z</time>
      </trkpt>
      <trkpt lat="45.19917" lon="4.64813">
        <ele>473.10607910156</ele>
        <time>2013-03-03T13:20:43Z</time>
      </trkpt>
      <trkpt lat="45.19916" lon="4.64815">
        <ele>472.14465332031</ele>
        <time>2013-03-03T13:20:44Z</time>
      </trkpt>
      <trkpt lat="45.19909" lon="4.64825">
        <ele>470.22192382812</ele>
        <time>2013-03-03T13:20:47Z</time>
      </trkpt>
      <trkpt lat="45.19907" lon="4.64853">
        <ele>463.97338867188</ele>
        <time>2013-03-03T13:20:53Z</time>
      </trkpt>
      <trkpt lat="45.1991" lon="4.64857">
        <ele>463.01208496094</ele>
        <time>2013-03-03T13:20:54Z</time>
      </trkpt>
      <trkpt lat="45.19911" lon="4.64895">
        <ele>456.76354980469</ele>
        <time>2013-03-03T13:21:00Z</time>
      </trkpt>
      <trkpt lat="45.19904" lon="4.6491">
        <ele>454.36022949219</ele>
        <time>2013-03-03T13:21:05Z</time>
      </trkpt>
      <trkpt lat="45.19894" lon="4.64907">
        <ele>452.91821289062</ele>
        <time>2013-03-03T13:21:27Z</time>
      </trkpt>
      <trkpt lat="45.19864" lon="4.64893">
        <ele>452.91821289062</ele>
        <time>2013-03-03T13:21:38Z</time>
      </trkpt>
      <trkpt lat="45.19829" lon="4.64869">
        <ele>453.87963867188</ele>
        <time>2013-03-03T13:21:51Z</time>
      </trkpt>
      <trkpt lat="45.1979" lon="4.64848">
        <ele>453.39892578125</ele>
        <time>2013-03-03T13:22:04Z</time>
      </trkpt>
      <trkpt lat="45.19737" lon="4.64808">
        <ele>452.91821289062</ele>
        <time>2013-03-03T13:22:19Z</time>
      </trkpt>
      <trkpt lat="45.19695" lon="4.64774">
        <ele>454.8408203125</ele>
        <time>2013-03-03T13:22:33Z</time>
      </trkpt>
      <trkpt lat="45.1964" lon="4.64748">
        <ele>453.87963867188</ele>
        <time>2013-03-03T13:22:48Z</time>
      </trkpt>
      <trkpt lat="45.19622" lon="4.64735">
        <ele>453.39892578125</ele>
        <time>2013-03-03T13:22:53Z</time>
      </trkpt>
      <trkpt lat="45.19556" lon="4.64683">
        <ele>452.43762207031</ele>
        <time>2013-03-03T13:23:11Z</time>
      </trkpt>
      <trkpt lat="45.19479" lon="4.64638">
        <ele>451.47631835938</ele>
        <time>2013-03-03T13:23:27Z</time>
      </trkpt>
      <trkpt lat="45.1939" lon="4.64593">
        <ele>451.95703125</ele>
        <time>2013-03-03T13:23:45Z</time>
      </trkpt>
      <trkpt lat="45.19329" lon="4.64552">
        <ele>453.39892578125</ele>
        <time>2013-03-03T13:23:59Z</time>
      </trkpt>
      <trkpt lat="45.19275" lon="4.64502">
        <ele>454.36022949219</ele>
        <time>2013-03-03T13:24:15Z</time>
      </trkpt>
      <trkpt lat="45.19272" lon="4.64484">
        <ele>455.80224609375</ele>
        <time>2013-03-03T13:24:19Z</time>
      </trkpt>
      <trkpt lat="45.19284" lon="4.64435">
        <ele>456.76354980469</ele>
        <time>2013-03-03T13:24:31Z</time>
      </trkpt>
      <trkpt lat="45.19283" lon="4.64425">
        <ele>456.76354980469</ele>
        <time>2013-03-03T13:24:34Z</time>
      </trkpt>
      <trkpt lat="45.1928" lon="4.64418">
        <ele>457.72497558594</ele>
        <time>2013-03-03T13:24:37Z</time>
      </trkpt>
      <trkpt lat="45.19271" lon="4.64374">
        <ele>459.64758300781</ele>
        <time>2013-03-03T13:24:53Z</time>
      </trkpt>
      <trkpt lat="45.1926" lon="4.64336">
        <ele>462.05078125</ele>
        <time>2013-03-03T13:25:04Z</time>
      </trkpt>
      <trkpt lat="45.19243" lon="4.64285">
        <ele>466.857421875</ele>
        <time>2013-03-03T13:25:17Z</time>
      </trkpt>
      <trkpt lat="45.19235" lon="4.64274">
        <ele>467.81872558594</ele>
        <time>2013-03-03T13:25:24Z</time>
      </trkpt>
      <trkpt lat="45.1923" lon="4.64264">
        <ele>467.33813476562</ele>
        <time>2013-03-03T13:25:36Z</time>
      </trkpt>
      <trkpt lat="45.1923" lon="4.64265">
        <ele>467.33813476562</ele>
        <time>2013-03-03T13:25:52Z</time>
      </trkpt>
      <trkpt lat="45.19232" lon="4.64268">
        <ele>466.857421875</ele>
        <time>2013-03-03T13:26:09Z</time>
      </trkpt>
      <trkpt lat="45.19232" lon="4.64267">
        <ele>466.37670898438</ele>
        <time>2013-03-03T13:26:36Z</time>
      </trkpt>
      <trkpt lat="45.19232" lon="4.64267">
        <ele>466.37670898438</ele>
        <time>2013-03-03T13:26:39Z</time>
      </trkpt>
      <trkpt lat="45.19212" lon="4.6424">
        <ele>466.37670898438</ele>
        <time>2013-03-03T13:26:49Z</time>
      </trkpt>
      <trkpt lat="45.19167" lon="4.64182">
        <ele>464.93481445312</ele>
        <time>2013-03-03T13:27:01Z</time>
      </trkpt>
      <trkpt lat="45.19113" lon="4.64115">
        <ele>466.857421875</ele>
        <time>2013-03-03T13:27:16Z</time>
      </trkpt>
      <trkpt lat="45.19094" lon="4.64087">
        <ele>465.41552734375</ele>
        <time>2013-03-03T13:27:25Z</time>
      </trkpt>
      <trkpt lat="45.19072" lon="4.64054">
        <ele>463.97338867188</ele>
        <time>2013-03-03T13:27:32Z</time>
      </trkpt>
      <trkpt lat="45.19058" lon="4.64045">
        <ele>463.97338867188</ele>
        <time>2013-03-03T13:27:35Z</time>
      </trkpt>
      <trkpt lat="45.19049" lon="4.6404">
        <ele>463.97338867188</ele>
        <time>2013-03-03T13:27:37Z</time>
      </trkpt>
      <trkpt lat="45.19029" lon="4.64025">
        <ele>464.4541015625</ele>
        <time>2013-03-03T13:27:42Z</time>
      </trkpt>
      <trkpt lat="45.19016" lon="4.64012">
        <ele>463.97338867188</ele>
        <time>2013-03-03T13:27:45Z</time>
      </trkpt>
      <trkpt lat="45.19007" lon="4.64004">
        <ele>463.01208496094</ele>
        <time>2013-03-03T13:27:50Z</time>
      </trkpt>
      <trkpt lat="45.18977" lon="4.63981">
        <ele>463.49279785156</ele>
        <time>2013-03-03T13:27:54Z</time>
      </trkpt>
      <trkpt lat="45.18944" lon="4.63953">
        <ele>464.4541015625</ele>
        <time>2013-03-03T13:28:04Z</time>
      </trkpt>
      <trkpt lat="45.18926" lon="4.63915">
        <ele>465.41552734375</ele>
        <time>2013-03-03T13:28:14Z</time>
      </trkpt>
      <trkpt lat="45.18917" lon="4.63877">
        <ele>467.33813476562</ele>
        <time>2013-03-03T13:28:22Z</time>
      </trkpt>
      <trkpt lat="45.18907" lon="4.63863">
        <ele>467.33813476562</ele>
        <time>2013-03-03T13:28:26Z</time>
      </trkpt>
      <trkpt lat="45.18899" lon="4.63865">
        <ele>466.37670898438</ele>
        <time>2013-03-03T13:28:28Z</time>
      </trkpt>
      <trkpt lat="45.1887" lon="4.63852">
        <ele>465.89611816406</ele>
        <time>2013-03-03T13:28:36Z</time>
      </trkpt>
      <trkpt lat="45.1887" lon="4.63852">
        <ele>465.41552734375</ele>
        <time>2013-03-03T13:28:51Z</time>
      </trkpt>
      <trkpt lat="45.1887" lon="4.63852">
        <ele>465.89611816406</ele>
        <time>2013-03-03T13:34:34Z</time>
      </trkpt>
      <trkpt lat="45.18876" lon="4.63855">
        <ele>463.97338867188</ele>
        <time>2013-03-03T13:34:41Z</time>
      </trkpt>
    </trkseg>
  </trk>
</gpx>